<?xml version="1.0" encoding="UTF-8" standalone="no" ?>
<gpx xmlns="http://www.topografix.com/GPX/1/1" xmlns:xsi="http://www.w3.org/2001/XMLSchema-instance" xsi:schemaLocation="http://www.topografix.com/GPX/1/1 http://www.topografix.com/GPX/1/1/gpx.xsd" version="1.1" creator="VisuGPX - https://www.visugpx.com">
  <metadata>
    <name>Delincourt, L'aillerie, Delincourt par les groux</name>
    <desc><![CDATA[Delincourt, L'aillerie, Delincourt par les groux]]></desc>
  </metadata>
  <trk>
    <name><![CDATA[21 déc. 2016]]></name>
    <cmt><![CDATA[09:04:41]]></cmt>
    <desc><![CDATA[comment ...]]></desc>
    <trkseg>
      <trkpt lat="49.23879" lon="1.84258">
        <ele>145</ele>
        <time>2016-12-21T08:04:42Z</time>
      </trkpt>
      <trkpt lat="49.2388" lon="1.84257">
        <ele>144</ele>
        <time>2016-12-21T08:04:43Z</time>
      </trkpt>
      <trkpt lat="49.23877" lon="1.84256">
        <ele>141</ele>
        <time>2016-12-21T08:04:47Z</time>
      </trkpt>
      <trkpt lat="49.23871" lon="1.84257">
        <ele>142</ele>
        <time>2016-12-21T08:04:52Z</time>
      </trkpt>
      <trkpt lat="49.23862" lon="1.84251">
        <ele>142</ele>
        <time>2016-12-21T08:05:01Z</time>
      </trkpt>
      <trkpt lat="49.23856" lon="1.8425">
        <ele>143</ele>
        <time>2016-12-21T08:05:07Z</time>
      </trkpt>
      <trkpt lat="49.23853" lon="1.84246">
        <ele>142</ele>
        <time>2016-12-21T08:05:10Z</time>
      </trkpt>
      <trkpt lat="49.23844" lon="1.84244">
        <ele>139</ele>
        <time>2016-12-21T08:05:19Z</time>
      </trkpt>
      <trkpt lat="49.23841" lon="1.8424">
        <ele>139</ele>
        <time>2016-12-21T08:05:23Z</time>
      </trkpt>
      <trkpt lat="49.23825" lon="1.84231">
        <ele>136</ele>
        <time>2016-12-21T08:05:37Z</time>
      </trkpt>
      <trkpt lat="49.2382" lon="1.84231">
        <ele>137</ele>
        <time>2016-12-21T08:05:40Z</time>
      </trkpt>
      <trkpt lat="49.23815" lon="1.84235">
        <ele>136</ele>
        <time>2016-12-21T08:05:44Z</time>
      </trkpt>
      <trkpt lat="49.2379" lon="1.84239">
        <ele>131</ele>
        <time>2016-12-21T08:06:05Z</time>
      </trkpt>
      <trkpt lat="49.23787" lon="1.84244">
        <ele>130</ele>
        <time>2016-12-21T08:06:09Z</time>
      </trkpt>
      <trkpt lat="49.2378" lon="1.84245">
        <ele>131</ele>
        <time>2016-12-21T08:06:15Z</time>
      </trkpt>
      <trkpt lat="49.23776" lon="1.84243">
        <ele>131</ele>
        <time>2016-12-21T08:06:20Z</time>
      </trkpt>
      <trkpt lat="49.23771" lon="1.84246">
        <ele>132</ele>
        <time>2016-12-21T08:06:29Z</time>
      </trkpt>
      <trkpt lat="49.23767" lon="1.84247">
        <ele>131</ele>
        <time>2016-12-21T08:06:31Z</time>
      </trkpt>
      <trkpt lat="49.23745" lon="1.84254">
        <ele>129</ele>
        <time>2016-12-21T08:06:49Z</time>
      </trkpt>
      <trkpt lat="49.23739" lon="1.84254">
        <ele>128</ele>
        <time>2016-12-21T08:06:54Z</time>
      </trkpt>
      <trkpt lat="49.23708" lon="1.8427">
        <ele>129</ele>
        <time>2016-12-21T08:07:17Z</time>
      </trkpt>
      <trkpt lat="49.23692" lon="1.84289">
        <ele>132</ele>
        <time>2016-12-21T08:07:32Z</time>
      </trkpt>
      <trkpt lat="49.23658" lon="1.84328">
        <ele>130</ele>
        <time>2016-12-21T08:08:04Z</time>
      </trkpt>
      <trkpt lat="49.23638" lon="1.84348">
        <ele>130</ele>
        <time>2016-12-21T08:08:21Z</time>
      </trkpt>
      <trkpt lat="49.23629" lon="1.84356">
        <ele>131</ele>
        <time>2016-12-21T08:08:30Z</time>
      </trkpt>
      <trkpt lat="49.23626" lon="1.84367">
        <ele>129</ele>
        <time>2016-12-21T08:08:36Z</time>
      </trkpt>
      <trkpt lat="49.23623" lon="1.84368">
        <ele>129</ele>
        <time>2016-12-21T08:08:39Z</time>
      </trkpt>
      <trkpt lat="49.23603" lon="1.8439">
        <ele>127</ele>
        <time>2016-12-21T08:08:59Z</time>
      </trkpt>
      <trkpt lat="49.23599" lon="1.84392">
        <ele>128</ele>
        <time>2016-12-21T08:09:02Z</time>
      </trkpt>
      <trkpt lat="49.23592" lon="1.84402">
        <ele>128</ele>
        <time>2016-12-21T08:09:11Z</time>
      </trkpt>
      <trkpt lat="49.23589" lon="1.84402">
        <ele>128</ele>
        <time>2016-12-21T08:09:13Z</time>
      </trkpt>
      <trkpt lat="49.23559" lon="1.84428">
        <ele>131</ele>
        <time>2016-12-21T08:09:43Z</time>
      </trkpt>
      <trkpt lat="49.23554" lon="1.8443">
        <ele>130</ele>
        <time>2016-12-21T08:09:47Z</time>
      </trkpt>
      <trkpt lat="49.23549" lon="1.84436">
        <ele>130</ele>
        <time>2016-12-21T08:09:53Z</time>
      </trkpt>
      <trkpt lat="49.23547" lon="1.8444">
        <ele>129</ele>
        <time>2016-12-21T08:10:03Z</time>
      </trkpt>
      <trkpt lat="49.23541" lon="1.84443">
        <ele>131</ele>
        <time>2016-12-21T08:10:10Z</time>
      </trkpt>
      <trkpt lat="49.23539" lon="1.84447">
        <ele>131</ele>
        <time>2016-12-21T08:10:14Z</time>
      </trkpt>
      <trkpt lat="49.23535" lon="1.84448">
        <ele>130</ele>
        <time>2016-12-21T08:10:37Z</time>
      </trkpt>
      <trkpt lat="49.23528" lon="1.84457">
        <ele>129</ele>
        <time>2016-12-21T08:10:44Z</time>
      </trkpt>
      <trkpt lat="49.23517" lon="1.84467">
        <ele>130</ele>
        <time>2016-12-21T08:10:55Z</time>
      </trkpt>
      <trkpt lat="49.23512" lon="1.84466">
        <ele>130</ele>
        <time>2016-12-21T08:11:03Z</time>
      </trkpt>
      <trkpt lat="49.23508" lon="1.8447">
        <ele>133</ele>
        <time>2016-12-21T08:11:11Z</time>
      </trkpt>
      <trkpt lat="49.23491" lon="1.84489">
        <ele>131</ele>
        <time>2016-12-21T08:11:31Z</time>
      </trkpt>
      <trkpt lat="49.23486" lon="1.84488">
        <ele>131</ele>
        <time>2016-12-21T08:11:36Z</time>
      </trkpt>
      <trkpt lat="49.23483" lon="1.84491">
        <ele>131</ele>
        <time>2016-12-21T08:11:38Z</time>
      </trkpt>
      <trkpt lat="49.23481" lon="1.84496">
        <ele>131</ele>
        <time>2016-12-21T08:11:40Z</time>
      </trkpt>
      <trkpt lat="49.23473" lon="1.84497">
        <ele>129</ele>
        <time>2016-12-21T08:11:46Z</time>
      </trkpt>
      <trkpt lat="49.23471" lon="1.84501">
        <ele>130</ele>
        <time>2016-12-21T08:11:50Z</time>
      </trkpt>
      <trkpt lat="49.23468" lon="1.84499">
        <ele>130</ele>
        <time>2016-12-21T08:11:52Z</time>
      </trkpt>
      <trkpt lat="49.23466" lon="1.84503">
        <ele>130</ele>
        <time>2016-12-21T08:11:56Z</time>
      </trkpt>
      <trkpt lat="49.23444" lon="1.84522">
        <ele>131</ele>
        <time>2016-12-21T08:12:17Z</time>
      </trkpt>
      <trkpt lat="49.23433" lon="1.8453">
        <ele>132</ele>
        <time>2016-12-21T08:12:38Z</time>
      </trkpt>
      <trkpt lat="49.2343" lon="1.84532">
        <ele>133</ele>
        <time>2016-12-21T08:12:41Z</time>
      </trkpt>
      <trkpt lat="49.23431" lon="1.84538">
        <ele>132</ele>
        <time>2016-12-21T08:12:45Z</time>
      </trkpt>
      <trkpt lat="49.23428" lon="1.84538">
        <ele>132</ele>
        <time>2016-12-21T08:12:58Z</time>
      </trkpt>
      <trkpt lat="49.23422" lon="1.84543">
        <ele>132</ele>
        <time>2016-12-21T08:13:04Z</time>
      </trkpt>
      <trkpt lat="49.23415" lon="1.84562">
        <ele>131</ele>
        <time>2016-12-21T08:13:13Z</time>
      </trkpt>
      <trkpt lat="49.23411" lon="1.84561">
        <ele>130</ele>
        <time>2016-12-21T08:13:16Z</time>
      </trkpt>
      <trkpt lat="49.23409" lon="1.84565">
        <ele>130</ele>
        <time>2016-12-21T08:13:19Z</time>
      </trkpt>
      <trkpt lat="49.23401" lon="1.84566">
        <ele>132</ele>
        <time>2016-12-21T08:13:25Z</time>
      </trkpt>
      <trkpt lat="49.23395" lon="1.84574">
        <ele>132</ele>
        <time>2016-12-21T08:13:31Z</time>
      </trkpt>
      <trkpt lat="49.23392" lon="1.84575">
        <ele>133</ele>
        <time>2016-12-21T08:13:33Z</time>
      </trkpt>
      <trkpt lat="49.23389" lon="1.84579">
        <ele>132</ele>
        <time>2016-12-21T08:13:38Z</time>
      </trkpt>
      <trkpt lat="49.23367" lon="1.84595">
        <ele>136</ele>
        <time>2016-12-21T08:13:54Z</time>
      </trkpt>
      <trkpt lat="49.23366" lon="1.84601">
        <ele>136</ele>
        <time>2016-12-21T08:13:57Z</time>
      </trkpt>
      <trkpt lat="49.23361" lon="1.84601">
        <ele>137</ele>
        <time>2016-12-21T08:14:01Z</time>
      </trkpt>
      <trkpt lat="49.23358" lon="1.8461">
        <ele>136</ele>
        <time>2016-12-21T08:14:07Z</time>
      </trkpt>
      <trkpt lat="49.23354" lon="1.84611">
        <ele>136</ele>
        <time>2016-12-21T08:14:13Z</time>
      </trkpt>
      <trkpt lat="49.23349" lon="1.84619">
        <ele>135</ele>
        <time>2016-12-21T08:14:18Z</time>
      </trkpt>
      <trkpt lat="49.23348" lon="1.84624">
        <ele>134</ele>
        <time>2016-12-21T08:14:25Z</time>
      </trkpt>
      <trkpt lat="49.23346" lon="1.84628">
        <ele>133</ele>
        <time>2016-12-21T08:14:27Z</time>
      </trkpt>
      <trkpt lat="49.23336" lon="1.84632">
        <ele>130</ele>
        <time>2016-12-21T08:14:34Z</time>
      </trkpt>
      <trkpt lat="49.23326" lon="1.84643">
        <ele>132</ele>
        <time>2016-12-21T08:14:48Z</time>
      </trkpt>
      <trkpt lat="49.23318" lon="1.84649">
        <ele>131</ele>
        <time>2016-12-21T08:14:54Z</time>
      </trkpt>
      <trkpt lat="49.23315" lon="1.84649">
        <ele>132</ele>
        <time>2016-12-21T08:14:56Z</time>
      </trkpt>
      <trkpt lat="49.23309" lon="1.8466">
        <ele>131</ele>
        <time>2016-12-21T08:15:08Z</time>
      </trkpt>
      <trkpt lat="49.23289" lon="1.84676">
        <ele>130</ele>
        <time>2016-12-21T08:15:21Z</time>
      </trkpt>
      <trkpt lat="49.2326" lon="1.84709">
        <ele>130</ele>
        <time>2016-12-21T08:15:45Z</time>
      </trkpt>
      <trkpt lat="49.2326" lon="1.84714">
        <ele>130</ele>
        <time>2016-12-21T08:15:47Z</time>
      </trkpt>
      <trkpt lat="49.23254" lon="1.84724">
        <ele>131</ele>
        <time>2016-12-21T08:15:53Z</time>
      </trkpt>
      <trkpt lat="49.2325" lon="1.84724">
        <ele>131</ele>
        <time>2016-12-21T08:15:55Z</time>
      </trkpt>
      <trkpt lat="49.23246" lon="1.84726">
        <ele>131</ele>
        <time>2016-12-21T08:15:58Z</time>
      </trkpt>
      <trkpt lat="49.23243" lon="1.84731">
        <ele>132</ele>
        <time>2016-12-21T08:16:01Z</time>
      </trkpt>
      <trkpt lat="49.23242" lon="1.84744">
        <ele>130</ele>
        <time>2016-12-21T08:16:06Z</time>
      </trkpt>
      <trkpt lat="49.23232" lon="1.84757">
        <ele>131</ele>
        <time>2016-12-21T08:16:14Z</time>
      </trkpt>
      <trkpt lat="49.23224" lon="1.84779">
        <ele>129</ele>
        <time>2016-12-21T08:16:26Z</time>
      </trkpt>
      <trkpt lat="49.23207" lon="1.84799">
        <ele>130</ele>
        <time>2016-12-21T08:16:43Z</time>
      </trkpt>
      <trkpt lat="49.23206" lon="1.8481">
        <ele>130</ele>
        <time>2016-12-21T08:16:48Z</time>
      </trkpt>
      <trkpt lat="49.232" lon="1.84815">
        <ele>128</ele>
        <time>2016-12-21T08:16:53Z</time>
      </trkpt>
      <trkpt lat="49.23204" lon="1.84826">
        <ele>128</ele>
        <time>2016-12-21T08:16:59Z</time>
      </trkpt>
      <trkpt lat="49.23205" lon="1.84836">
        <ele>127</ele>
        <time>2016-12-21T08:17:07Z</time>
      </trkpt>
      <trkpt lat="49.23218" lon="1.84854">
        <ele>124</ele>
        <time>2016-12-21T08:17:26Z</time>
      </trkpt>
      <trkpt lat="49.23223" lon="1.84871">
        <ele>122</ele>
        <time>2016-12-21T08:17:35Z</time>
      </trkpt>
      <trkpt lat="49.23226" lon="1.84875">
        <ele>121</ele>
        <time>2016-12-21T08:17:40Z</time>
      </trkpt>
      <trkpt lat="49.23233" lon="1.84875">
        <ele>121</ele>
        <time>2016-12-21T08:17:44Z</time>
      </trkpt>
      <trkpt lat="49.23236" lon="1.84888">
        <ele>121</ele>
        <time>2016-12-21T08:17:49Z</time>
      </trkpt>
      <trkpt lat="49.23246" lon="1.84902">
        <ele>123</ele>
        <time>2016-12-21T08:18:02Z</time>
      </trkpt>
      <trkpt lat="49.23259" lon="1.84926">
        <ele>120</ele>
        <time>2016-12-21T08:18:20Z</time>
      </trkpt>
      <trkpt lat="49.23283" lon="1.84978">
        <ele>122</ele>
        <time>2016-12-21T08:18:52Z</time>
      </trkpt>
      <trkpt lat="49.23294" lon="1.84999">
        <ele>120</ele>
        <time>2016-12-21T08:19:07Z</time>
      </trkpt>
      <trkpt lat="49.23302" lon="1.8502">
        <ele>118</ele>
        <time>2016-12-21T08:19:18Z</time>
      </trkpt>
      <trkpt lat="49.23305" lon="1.85028">
        <ele>117</ele>
        <time>2016-12-21T08:19:24Z</time>
      </trkpt>
      <trkpt lat="49.23305" lon="1.85037">
        <ele>119</ele>
        <time>2016-12-21T08:19:28Z</time>
      </trkpt>
      <trkpt lat="49.23303" lon="1.85062">
        <ele>122</ele>
        <time>2016-12-21T08:19:43Z</time>
      </trkpt>
      <trkpt lat="49.23302" lon="1.85074">
        <ele>120</ele>
        <time>2016-12-21T08:19:50Z</time>
      </trkpt>
      <trkpt lat="49.23301" lon="1.85095">
        <ele>122</ele>
        <time>2016-12-21T08:19:58Z</time>
      </trkpt>
      <trkpt lat="49.233" lon="1.85102">
        <ele>126</ele>
        <time>2016-12-21T08:20:01Z</time>
      </trkpt>
      <trkpt lat="49.23302" lon="1.85117">
        <ele>127</ele>
        <time>2016-12-21T08:20:10Z</time>
      </trkpt>
      <trkpt lat="49.23306" lon="1.85127">
        <ele>128</ele>
        <time>2016-12-21T08:20:17Z</time>
      </trkpt>
      <trkpt lat="49.2331" lon="1.85169">
        <ele>128</ele>
        <time>2016-12-21T08:20:37Z</time>
      </trkpt>
      <trkpt lat="49.23309" lon="1.8518">
        <ele>125</ele>
        <time>2016-12-21T08:20:43Z</time>
      </trkpt>
      <trkpt lat="49.2331" lon="1.85189">
        <ele>123</ele>
        <time>2016-12-21T08:20:51Z</time>
      </trkpt>
      <trkpt lat="49.23314" lon="1.85195">
        <ele>122</ele>
        <time>2016-12-21T08:20:57Z</time>
      </trkpt>
      <trkpt lat="49.23316" lon="1.85205">
        <ele>120</ele>
        <time>2016-12-21T08:21:02Z</time>
      </trkpt>
      <trkpt lat="49.23313" lon="1.85217">
        <ele>119</ele>
        <time>2016-12-21T08:21:09Z</time>
      </trkpt>
      <trkpt lat="49.23312" lon="1.85229">
        <ele>116</ele>
        <time>2016-12-21T08:21:16Z</time>
      </trkpt>
      <trkpt lat="49.23307" lon="1.85256">
        <ele>117</ele>
        <time>2016-12-21T08:21:35Z</time>
      </trkpt>
      <trkpt lat="49.23306" lon="1.85266">
        <ele>113</ele>
        <time>2016-12-21T08:21:39Z</time>
      </trkpt>
      <trkpt lat="49.23303" lon="1.85273">
        <ele>111</ele>
        <time>2016-12-21T08:21:43Z</time>
      </trkpt>
      <trkpt lat="49.23304" lon="1.85281">
        <ele>112</ele>
        <time>2016-12-21T08:21:48Z</time>
      </trkpt>
      <trkpt lat="49.23303" lon="1.85302">
        <ele>109</ele>
        <time>2016-12-21T08:22:02Z</time>
      </trkpt>
      <trkpt lat="49.23297" lon="1.85312">
        <ele>108</ele>
        <time>2016-12-21T08:22:04Z</time>
      </trkpt>
      <trkpt lat="49.23297" lon="1.85322">
        <ele>108</ele>
        <time>2016-12-21T08:22:10Z</time>
      </trkpt>
      <trkpt lat="49.23299" lon="1.85328">
        <ele>107</ele>
        <time>2016-12-21T08:22:14Z</time>
      </trkpt>
      <trkpt lat="49.23296" lon="1.85335">
        <ele>105</ele>
        <time>2016-12-21T08:22:20Z</time>
      </trkpt>
      <trkpt lat="49.23291" lon="1.85355">
        <ele>102</ele>
        <time>2016-12-21T08:22:35Z</time>
      </trkpt>
      <trkpt lat="49.23288" lon="1.85361">
        <ele>101</ele>
        <time>2016-12-21T08:22:39Z</time>
      </trkpt>
      <trkpt lat="49.23284" lon="1.85363">
        <ele>99</ele>
        <time>2016-12-21T08:22:42Z</time>
      </trkpt>
      <trkpt lat="49.23281" lon="1.85369">
        <ele>99</ele>
        <time>2016-12-21T08:22:46Z</time>
      </trkpt>
      <trkpt lat="49.23279" lon="1.8538">
        <ele>93</ele>
        <time>2016-12-21T08:22:54Z</time>
      </trkpt>
      <trkpt lat="49.23281" lon="1.85391">
        <ele>91</ele>
        <time>2016-12-21T08:22:58Z</time>
      </trkpt>
      <trkpt lat="49.23283" lon="1.854">
        <ele>88</ele>
        <time>2016-12-21T08:23:02Z</time>
      </trkpt>
      <trkpt lat="49.2328" lon="1.85408">
        <ele>88</ele>
        <time>2016-12-21T08:23:04Z</time>
      </trkpt>
      <trkpt lat="49.23279" lon="1.85416">
        <ele>89</ele>
        <time>2016-12-21T08:23:09Z</time>
      </trkpt>
      <trkpt lat="49.23283" lon="1.85422">
        <ele>88</ele>
        <time>2016-12-21T08:23:14Z</time>
      </trkpt>
      <trkpt lat="49.23285" lon="1.85432">
        <ele>88</ele>
        <time>2016-12-21T08:23:21Z</time>
      </trkpt>
      <trkpt lat="49.23284" lon="1.85443">
        <ele>87</ele>
        <time>2016-12-21T08:23:26Z</time>
      </trkpt>
      <trkpt lat="49.23294" lon="1.85459">
        <ele>87</ele>
        <time>2016-12-21T08:23:36Z</time>
      </trkpt>
      <trkpt lat="49.23293" lon="1.85471">
        <ele>88</ele>
        <time>2016-12-21T08:23:43Z</time>
      </trkpt>
      <trkpt lat="49.23296" lon="1.85481">
        <ele>92</ele>
        <time>2016-12-21T08:23:50Z</time>
      </trkpt>
      <trkpt lat="49.23297" lon="1.85491">
        <ele>91</ele>
        <time>2016-12-21T08:23:55Z</time>
      </trkpt>
      <trkpt lat="49.23298" lon="1.85499">
        <ele>93</ele>
        <time>2016-12-21T08:24:01Z</time>
      </trkpt>
      <trkpt lat="49.23297" lon="1.85506">
        <ele>94</ele>
        <time>2016-12-21T08:24:09Z</time>
      </trkpt>
      <trkpt lat="49.23301" lon="1.85513">
        <ele>94</ele>
        <time>2016-12-21T08:24:13Z</time>
      </trkpt>
      <trkpt lat="49.23305" lon="1.85521">
        <ele>92</ele>
        <time>2016-12-21T08:24:17Z</time>
      </trkpt>
      <trkpt lat="49.23311" lon="1.85563">
        <ele>92</ele>
        <time>2016-12-21T08:24:40Z</time>
      </trkpt>
      <trkpt lat="49.23311" lon="1.8557">
        <ele>93</ele>
        <time>2016-12-21T08:24:45Z</time>
      </trkpt>
      <trkpt lat="49.23313" lon="1.85577">
        <ele>93</ele>
        <time>2016-12-21T08:24:48Z</time>
      </trkpt>
      <trkpt lat="49.23315" lon="1.85584">
        <ele>92</ele>
        <time>2016-12-21T08:24:52Z</time>
      </trkpt>
      <trkpt lat="49.23315" lon="1.85594">
        <ele>92</ele>
        <time>2016-12-21T08:24:57Z</time>
      </trkpt>
      <trkpt lat="49.23315" lon="1.85601">
        <ele>94</ele>
        <time>2016-12-21T08:25:00Z</time>
      </trkpt>
      <trkpt lat="49.23325" lon="1.85651">
        <ele>100</ele>
        <time>2016-12-21T08:25:30Z</time>
      </trkpt>
      <trkpt lat="49.23325" lon="1.85681">
        <ele>95</ele>
        <time>2016-12-21T08:25:50Z</time>
      </trkpt>
      <trkpt lat="49.23326" lon="1.85691">
        <ele>93</ele>
        <time>2016-12-21T08:25:54Z</time>
      </trkpt>
      <trkpt lat="49.23328" lon="1.85698">
        <ele>93</ele>
        <time>2016-12-21T08:25:58Z</time>
      </trkpt>
      <trkpt lat="49.23331" lon="1.85699">
        <ele>92</ele>
        <time>2016-12-21T08:26:04Z</time>
      </trkpt>
      <trkpt lat="49.23349" lon="1.85702">
        <ele>90</ele>
        <time>2016-12-21T08:26:39Z</time>
      </trkpt>
      <trkpt lat="49.23362" lon="1.85697">
        <ele>88</ele>
        <time>2016-12-21T08:27:02Z</time>
      </trkpt>
      <trkpt lat="49.23378" lon="1.8569">
        <ele>86</ele>
        <time>2016-12-21T08:27:13Z</time>
      </trkpt>
      <trkpt lat="49.23387" lon="1.85698">
        <ele>89</ele>
        <time>2016-12-21T08:27:28Z</time>
      </trkpt>
      <trkpt lat="49.23392" lon="1.85704">
        <ele>90</ele>
        <time>2016-12-21T08:27:32Z</time>
      </trkpt>
      <trkpt lat="49.23398" lon="1.857">
        <ele>92</ele>
        <time>2016-12-21T08:27:38Z</time>
      </trkpt>
      <trkpt lat="49.23403" lon="1.85712">
        <ele>94</ele>
        <time>2016-12-21T08:27:42Z</time>
      </trkpt>
      <trkpt lat="49.23408" lon="1.85727">
        <ele>102</ele>
        <time>2016-12-21T08:27:51Z</time>
      </trkpt>
      <trkpt lat="49.23414" lon="1.85733">
        <ele>102</ele>
        <time>2016-12-21T08:27:57Z</time>
      </trkpt>
      <trkpt lat="49.23416" lon="1.85742">
        <ele>101</ele>
        <time>2016-12-21T08:28:00Z</time>
      </trkpt>
      <trkpt lat="49.23421" lon="1.85749">
        <ele>99</ele>
        <time>2016-12-21T08:28:05Z</time>
      </trkpt>
      <trkpt lat="49.23434" lon="1.85781">
        <ele>93</ele>
        <time>2016-12-21T08:28:24Z</time>
      </trkpt>
      <trkpt lat="49.23436" lon="1.85794">
        <ele>93</ele>
        <time>2016-12-21T08:28:31Z</time>
      </trkpt>
      <trkpt lat="49.23445" lon="1.85803">
        <ele>92</ele>
        <time>2016-12-21T08:28:39Z</time>
      </trkpt>
      <trkpt lat="49.23451" lon="1.85816">
        <ele>90</ele>
        <time>2016-12-21T08:28:46Z</time>
      </trkpt>
      <trkpt lat="49.23459" lon="1.85821">
        <ele>89</ele>
        <time>2016-12-21T08:28:53Z</time>
      </trkpt>
      <trkpt lat="49.23464" lon="1.85824">
        <ele>90</ele>
        <time>2016-12-21T08:28:58Z</time>
      </trkpt>
      <trkpt lat="49.23477" lon="1.85824">
        <ele>91</ele>
        <time>2016-12-21T08:29:17Z</time>
      </trkpt>
      <trkpt lat="49.23486" lon="1.85822">
        <ele>89</ele>
        <time>2016-12-21T08:29:22Z</time>
      </trkpt>
      <trkpt lat="49.23491" lon="1.85836">
        <ele>86</ele>
        <time>2016-12-21T08:29:33Z</time>
      </trkpt>
      <trkpt lat="49.23507" lon="1.85843">
        <ele>86</ele>
        <time>2016-12-21T08:29:44Z</time>
      </trkpt>
      <trkpt lat="49.23514" lon="1.85848">
        <ele>88</ele>
        <time>2016-12-21T08:29:51Z</time>
      </trkpt>
      <trkpt lat="49.2353" lon="1.85844">
        <ele>90</ele>
        <time>2016-12-21T08:30:01Z</time>
      </trkpt>
      <trkpt lat="49.23534" lon="1.85837">
        <ele>90</ele>
        <time>2016-12-21T08:30:04Z</time>
      </trkpt>
      <trkpt lat="49.2354" lon="1.85837">
        <ele>88</ele>
        <time>2016-12-21T08:30:09Z</time>
      </trkpt>
      <trkpt lat="49.2355" lon="1.85821">
        <ele>86</ele>
        <time>2016-12-21T08:30:22Z</time>
      </trkpt>
      <trkpt lat="49.23559" lon="1.85817">
        <ele>86</ele>
        <time>2016-12-21T08:30:27Z</time>
      </trkpt>
      <trkpt lat="49.2357" lon="1.85803">
        <ele>83</ele>
        <time>2016-12-21T08:30:41Z</time>
      </trkpt>
      <trkpt lat="49.23577" lon="1.85796">
        <ele>86</ele>
        <time>2016-12-21T08:30:47Z</time>
      </trkpt>
      <trkpt lat="49.23576" lon="1.85787">
        <ele>86</ele>
        <time>2016-12-21T08:30:53Z</time>
      </trkpt>
      <trkpt lat="49.23585" lon="1.85728">
        <ele>85</ele>
        <time>2016-12-21T08:31:24Z</time>
      </trkpt>
      <trkpt lat="49.2359" lon="1.85716">
        <ele>85</ele>
        <time>2016-12-21T08:31:30Z</time>
      </trkpt>
      <trkpt lat="49.23589" lon="1.85695">
        <ele>86</ele>
        <time>2016-12-21T08:31:47Z</time>
      </trkpt>
      <trkpt lat="49.23596" lon="1.85681">
        <ele>84</ele>
        <time>2016-12-21T08:31:54Z</time>
      </trkpt>
      <trkpt lat="49.23608" lon="1.85641">
        <ele>77</ele>
        <time>2016-12-21T08:32:18Z</time>
      </trkpt>
      <trkpt lat="49.23606" lon="1.85628">
        <ele>77</ele>
        <time>2016-12-21T08:32:28Z</time>
      </trkpt>
      <trkpt lat="49.2361" lon="1.85621">
        <ele>77</ele>
        <time>2016-12-21T08:32:34Z</time>
      </trkpt>
      <trkpt lat="49.23612" lon="1.85608">
        <ele>79</ele>
        <time>2016-12-21T08:32:37Z</time>
      </trkpt>
      <trkpt lat="49.23613" lon="1.85596">
        <ele>80</ele>
        <time>2016-12-21T08:32:42Z</time>
      </trkpt>
      <trkpt lat="49.23619" lon="1.85586">
        <ele>79</ele>
        <time>2016-12-21T08:32:46Z</time>
      </trkpt>
      <trkpt lat="49.23621" lon="1.8556">
        <ele>77</ele>
        <time>2016-12-21T08:33:00Z</time>
      </trkpt>
      <trkpt lat="49.23633" lon="1.85532">
        <ele>79</ele>
        <time>2016-12-21T08:33:23Z</time>
      </trkpt>
      <trkpt lat="49.23638" lon="1.8553">
        <ele>80</ele>
        <time>2016-12-21T08:33:27Z</time>
      </trkpt>
      <trkpt lat="49.23634" lon="1.85517">
        <ele>80</ele>
        <time>2016-12-21T08:33:33Z</time>
      </trkpt>
      <trkpt lat="49.23638" lon="1.85509">
        <ele>81</ele>
        <time>2016-12-21T08:33:37Z</time>
      </trkpt>
      <trkpt lat="49.2365" lon="1.85489">
        <ele>85</ele>
        <time>2016-12-21T08:33:49Z</time>
      </trkpt>
      <trkpt lat="49.23647" lon="1.85481">
        <ele>84</ele>
        <time>2016-12-21T08:33:57Z</time>
      </trkpt>
      <trkpt lat="49.23648" lon="1.85472">
        <ele>83</ele>
        <time>2016-12-21T08:34:00Z</time>
      </trkpt>
      <trkpt lat="49.23651" lon="1.85464">
        <ele>84</ele>
        <time>2016-12-21T08:34:04Z</time>
      </trkpt>
      <trkpt lat="49.2365" lon="1.85446">
        <ele>82</ele>
        <time>2016-12-21T08:34:15Z</time>
      </trkpt>
      <trkpt lat="49.23655" lon="1.85432">
        <ele>82</ele>
        <time>2016-12-21T08:34:23Z</time>
      </trkpt>
      <trkpt lat="49.23655" lon="1.8542">
        <ele>80</ele>
        <time>2016-12-21T08:34:31Z</time>
      </trkpt>
      <trkpt lat="49.23654" lon="1.85414">
        <ele>79</ele>
        <time>2016-12-21T08:34:34Z</time>
      </trkpt>
      <trkpt lat="49.23655" lon="1.85408">
        <ele>80</ele>
        <time>2016-12-21T08:34:37Z</time>
      </trkpt>
      <trkpt lat="49.23657" lon="1.85405">
        <ele>82</ele>
        <time>2016-12-21T08:34:41Z</time>
      </trkpt>
      <trkpt lat="49.23652" lon="1.85411">
        <ele>83</ele>
        <time>2016-12-21T08:35:03Z</time>
      </trkpt>
      <trkpt lat="49.23654" lon="1.85401">
        <ele>82</ele>
        <time>2016-12-21T08:35:13Z</time>
      </trkpt>
      <trkpt lat="49.23654" lon="1.85395">
        <ele>80</ele>
        <time>2016-12-21T08:35:16Z</time>
      </trkpt>
      <trkpt lat="49.23657" lon="1.8539">
        <ele>80</ele>
        <time>2016-12-21T08:35:29Z</time>
      </trkpt>
      <trkpt lat="49.23661" lon="1.85388">
        <ele>83</ele>
        <time>2016-12-21T08:35:33Z</time>
      </trkpt>
      <trkpt lat="49.23663" lon="1.85382">
        <ele>85</ele>
        <time>2016-12-21T08:35:39Z</time>
      </trkpt>
      <trkpt lat="49.2366" lon="1.8538">
        <ele>85</ele>
        <time>2016-12-21T08:35:40Z</time>
      </trkpt>
      <trkpt lat="49.23665" lon="1.85378">
        <ele>85</ele>
        <time>2016-12-21T08:35:45Z</time>
      </trkpt>
      <trkpt lat="49.23664" lon="1.85373">
        <ele>84</ele>
        <time>2016-12-21T08:35:47Z</time>
      </trkpt>
      <trkpt lat="49.23665" lon="1.85366">
        <ele>83</ele>
        <time>2016-12-21T08:35:50Z</time>
      </trkpt>
      <trkpt lat="49.23669" lon="1.85356">
        <ele>79</ele>
        <time>2016-12-21T08:35:59Z</time>
      </trkpt>
      <trkpt lat="49.23671" lon="1.85351">
        <ele>79</ele>
        <time>2016-12-21T08:36:03Z</time>
      </trkpt>
      <trkpt lat="49.23674" lon="1.85344">
        <ele>79</ele>
        <time>2016-12-21T08:36:33Z</time>
      </trkpt>
      <trkpt lat="49.23683" lon="1.85325">
        <ele>78</ele>
        <time>2016-12-21T08:36:46Z</time>
      </trkpt>
      <trkpt lat="49.23693" lon="1.85313">
        <ele>79</ele>
        <time>2016-12-21T08:36:56Z</time>
      </trkpt>
      <trkpt lat="49.23724" lon="1.85271">
        <ele>82</ele>
        <time>2016-12-21T08:37:27Z</time>
      </trkpt>
      <trkpt lat="49.23726" lon="1.85267">
        <ele>83</ele>
        <time>2016-12-21T08:37:30Z</time>
      </trkpt>
      <trkpt lat="49.23726" lon="1.8526">
        <ele>83</ele>
        <time>2016-12-21T08:37:33Z</time>
      </trkpt>
      <trkpt lat="49.23731" lon="1.85253">
        <ele>84</ele>
        <time>2016-12-21T08:37:37Z</time>
      </trkpt>
      <trkpt lat="49.2376" lon="1.85223">
        <ele>82</ele>
        <time>2016-12-21T08:38:00Z</time>
      </trkpt>
      <trkpt lat="49.23765" lon="1.85216">
        <ele>80</ele>
        <time>2016-12-21T08:38:04Z</time>
      </trkpt>
      <trkpt lat="49.23768" lon="1.85195">
        <ele>82</ele>
        <time>2016-12-21T08:38:15Z</time>
      </trkpt>
      <trkpt lat="49.23774" lon="1.85189">
        <ele>82</ele>
        <time>2016-12-21T08:38:21Z</time>
      </trkpt>
      <trkpt lat="49.23797" lon="1.85157">
        <ele>83</ele>
        <time>2016-12-21T08:38:47Z</time>
      </trkpt>
      <trkpt lat="49.23823" lon="1.85139">
        <ele>85</ele>
        <time>2016-12-21T08:39:09Z</time>
      </trkpt>
      <trkpt lat="49.23836" lon="1.85134">
        <ele>83</ele>
        <time>2016-12-21T08:39:20Z</time>
      </trkpt>
      <trkpt lat="49.2384" lon="1.85125">
        <ele>81</ele>
        <time>2016-12-21T08:39:24Z</time>
      </trkpt>
      <trkpt lat="49.23846" lon="1.85123">
        <ele>80</ele>
        <time>2016-12-21T08:39:30Z</time>
      </trkpt>
      <trkpt lat="49.23849" lon="1.85115">
        <ele>80</ele>
        <time>2016-12-21T08:39:35Z</time>
      </trkpt>
      <trkpt lat="49.23856" lon="1.85107">
        <ele>81</ele>
        <time>2016-12-21T08:39:39Z</time>
      </trkpt>
      <trkpt lat="49.23864" lon="1.85104">
        <ele>83</ele>
        <time>2016-12-21T08:39:42Z</time>
      </trkpt>
      <trkpt lat="49.23875" lon="1.85091">
        <ele>84</ele>
        <time>2016-12-21T08:39:49Z</time>
      </trkpt>
      <trkpt lat="49.2388" lon="1.85085">
        <ele>85</ele>
        <time>2016-12-21T08:39:52Z</time>
      </trkpt>
      <trkpt lat="49.2387" lon="1.85082">
        <ele>85</ele>
        <time>2016-12-21T08:39:53Z</time>
      </trkpt>
      <trkpt lat="49.23869" lon="1.8507">
        <ele>80</ele>
        <time>2016-12-21T08:39:59Z</time>
      </trkpt>
      <trkpt lat="49.23874" lon="1.85063">
        <ele>80</ele>
        <time>2016-12-21T08:40:03Z</time>
      </trkpt>
      <trkpt lat="49.23876" lon="1.85055">
        <ele>80</ele>
        <time>2016-12-21T08:40:06Z</time>
      </trkpt>
      <trkpt lat="49.23892" lon="1.85014">
        <ele>87</ele>
        <time>2016-12-21T08:40:26Z</time>
      </trkpt>
      <trkpt lat="49.23888" lon="1.85006">
        <ele>89</ele>
        <time>2016-12-21T08:40:31Z</time>
      </trkpt>
      <trkpt lat="49.2389" lon="1.84995">
        <ele>90</ele>
        <time>2016-12-21T08:40:36Z</time>
      </trkpt>
      <trkpt lat="49.23898" lon="1.84981">
        <ele>94</ele>
        <time>2016-12-21T08:40:42Z</time>
      </trkpt>
      <trkpt lat="49.23906" lon="1.84979">
        <ele>94</ele>
        <time>2016-12-21T08:40:46Z</time>
      </trkpt>
      <trkpt lat="49.23906" lon="1.84987">
        <ele>88</ele>
        <time>2016-12-21T08:41:01Z</time>
      </trkpt>
      <trkpt lat="49.23906" lon="1.84996">
        <ele>82</ele>
        <time>2016-12-21T08:41:03Z</time>
      </trkpt>
      <trkpt lat="49.23913" lon="1.84995">
        <ele>79</ele>
        <time>2016-12-21T08:41:08Z</time>
      </trkpt>
      <trkpt lat="49.23922" lon="1.84994">
        <ele>79</ele>
        <time>2016-12-21T08:41:14Z</time>
      </trkpt>
      <trkpt lat="49.23926" lon="1.85008">
        <ele>79</ele>
        <time>2016-12-21T08:41:18Z</time>
      </trkpt>
      <trkpt lat="49.23934" lon="1.85008">
        <ele>80</ele>
        <time>2016-12-21T08:41:22Z</time>
      </trkpt>
      <trkpt lat="49.23941" lon="1.85009">
        <ele>83</ele>
        <time>2016-12-21T08:41:29Z</time>
      </trkpt>
      <trkpt lat="49.23953" lon="1.85026">
        <ele>84</ele>
        <time>2016-12-21T08:41:41Z</time>
      </trkpt>
      <trkpt lat="49.23959" lon="1.85027">
        <ele>83</ele>
        <time>2016-12-21T08:41:47Z</time>
      </trkpt>
      <trkpt lat="49.23966" lon="1.85029">
        <ele>81</ele>
        <time>2016-12-21T08:41:53Z</time>
      </trkpt>
      <trkpt lat="49.2398" lon="1.85001">
        <ele>76</ele>
        <time>2016-12-21T08:42:00Z</time>
      </trkpt>
      <trkpt lat="49.23984" lon="1.84992">
        <ele>75</ele>
        <time>2016-12-21T08:42:05Z</time>
      </trkpt>
      <trkpt lat="49.23985" lon="1.84985">
        <ele>76</ele>
        <time>2016-12-21T08:42:10Z</time>
      </trkpt>
      <trkpt lat="49.23994" lon="1.84978">
        <ele>74</ele>
        <time>2016-12-21T08:42:17Z</time>
      </trkpt>
      <trkpt lat="49.24007" lon="1.84963">
        <ele>75</ele>
        <time>2016-12-21T08:42:28Z</time>
      </trkpt>
      <trkpt lat="49.24012" lon="1.84958">
        <ele>77</ele>
        <time>2016-12-21T08:42:31Z</time>
      </trkpt>
      <trkpt lat="49.2402" lon="1.84949">
        <ele>81</ele>
        <time>2016-12-21T08:42:37Z</time>
      </trkpt>
      <trkpt lat="49.24015" lon="1.84943">
        <ele>80</ele>
        <time>2016-12-21T08:42:41Z</time>
      </trkpt>
      <trkpt lat="49.24018" lon="1.84939">
        <ele>79</ele>
        <time>2016-12-21T08:42:45Z</time>
      </trkpt>
      <trkpt lat="49.24021" lon="1.84938">
        <ele>79</ele>
        <time>2016-12-21T08:42:46Z</time>
      </trkpt>
      <trkpt lat="49.2402" lon="1.84939">
        <ele>81</ele>
        <time>2016-12-21T08:43:12Z</time>
      </trkpt>
      <trkpt lat="49.24017" lon="1.84936">
        <ele>81</ele>
        <time>2016-12-21T08:43:17Z</time>
      </trkpt>
      <trkpt lat="49.24017" lon="1.84927">
        <ele>80</ele>
        <time>2016-12-21T08:43:22Z</time>
      </trkpt>
      <trkpt lat="49.24022" lon="1.84924">
        <ele>79</ele>
        <time>2016-12-21T08:43:26Z</time>
      </trkpt>
      <trkpt lat="49.24026" lon="1.84919">
        <ele>81</ele>
        <time>2016-12-21T08:43:38Z</time>
      </trkpt>
      <trkpt lat="49.24033" lon="1.84915">
        <ele>86</ele>
        <time>2016-12-21T08:43:49Z</time>
      </trkpt>
      <trkpt lat="49.24036" lon="1.84911">
        <ele>87</ele>
        <time>2016-12-21T08:43:54Z</time>
      </trkpt>
      <trkpt lat="49.24032" lon="1.84907">
        <ele>87</ele>
        <time>2016-12-21T08:44:00Z</time>
      </trkpt>
      <trkpt lat="49.24033" lon="1.84907">
        <ele>82</ele>
        <time>2016-12-21T08:44:16Z</time>
      </trkpt>
      <trkpt lat="49.24034" lon="1.849">
        <ele>81</ele>
        <time>2016-12-21T08:44:18Z</time>
      </trkpt>
      <trkpt lat="49.24042" lon="1.84892">
        <ele>79</ele>
        <time>2016-12-21T08:44:25Z</time>
      </trkpt>
      <trkpt lat="49.24048" lon="1.84889">
        <ele>77</ele>
        <time>2016-12-21T08:44:32Z</time>
      </trkpt>
      <trkpt lat="49.24056" lon="1.84886">
        <ele>82</ele>
        <time>2016-12-21T08:44:52Z</time>
      </trkpt>
      <trkpt lat="49.2406" lon="1.84889">
        <ele>82</ele>
        <time>2016-12-21T08:44:55Z</time>
      </trkpt>
      <trkpt lat="49.24062" lon="1.84883">
        <ele>81</ele>
        <time>2016-12-21T08:44:59Z</time>
      </trkpt>
      <trkpt lat="49.24079" lon="1.8487">
        <ele>75</ele>
        <time>2016-12-21T08:45:09Z</time>
      </trkpt>
      <trkpt lat="49.24105" lon="1.84842">
        <ele>76</ele>
        <time>2016-12-21T08:45:46Z</time>
      </trkpt>
      <trkpt lat="49.24136" lon="1.8482">
        <ele>77</ele>
        <time>2016-12-21T08:46:20Z</time>
      </trkpt>
      <trkpt lat="49.24152" lon="1.84807">
        <ele>79</ele>
        <time>2016-12-21T08:46:31Z</time>
      </trkpt>
      <trkpt lat="49.24156" lon="1.84798">
        <ele>78</ele>
        <time>2016-12-21T08:46:41Z</time>
      </trkpt>
      <trkpt lat="49.24159" lon="1.84793">
        <ele>78</ele>
        <time>2016-12-21T08:46:43Z</time>
      </trkpt>
      <trkpt lat="49.24163" lon="1.84792">
        <ele>77</ele>
        <time>2016-12-21T08:46:44Z</time>
      </trkpt>
      <trkpt lat="49.24173" lon="1.84792">
        <ele>77</ele>
        <time>2016-12-21T08:46:48Z</time>
      </trkpt>
      <trkpt lat="49.24205" lon="1.84774">
        <ele>77</ele>
        <time>2016-12-21T08:47:19Z</time>
      </trkpt>
      <trkpt lat="49.2421" lon="1.84774">
        <ele>78</ele>
        <time>2016-12-21T08:47:23Z</time>
      </trkpt>
      <trkpt lat="49.24237" lon="1.84768">
        <ele>84</ele>
        <time>2016-12-21T08:47:45Z</time>
      </trkpt>
      <trkpt lat="49.24248" lon="1.84763">
        <ele>84</ele>
        <time>2016-12-21T08:47:56Z</time>
      </trkpt>
      <trkpt lat="49.24293" lon="1.8476">
        <ele>81</ele>
        <time>2016-12-21T08:48:27Z</time>
      </trkpt>
      <trkpt lat="49.24322" lon="1.84752">
        <ele>84</ele>
        <time>2016-12-21T08:48:46Z</time>
      </trkpt>
      <trkpt lat="49.24321" lon="1.84749">
        <ele>82</ele>
        <time>2016-12-21T08:48:51Z</time>
      </trkpt>
      <trkpt lat="49.24349" lon="1.84741">
        <ele>80</ele>
        <time>2016-12-21T08:49:14Z</time>
      </trkpt>
      <trkpt lat="49.24352" lon="1.84745">
        <ele>78</ele>
        <time>2016-12-21T08:49:16Z</time>
      </trkpt>
      <trkpt lat="49.24354" lon="1.84757">
        <ele>77</ele>
        <time>2016-12-21T08:49:26Z</time>
      </trkpt>
      <trkpt lat="49.24352" lon="1.8477">
        <ele>78</ele>
        <time>2016-12-21T08:49:30Z</time>
      </trkpt>
      <trkpt lat="49.24357" lon="1.84785">
        <ele>72</ele>
        <time>2016-12-21T08:49:43Z</time>
      </trkpt>
      <trkpt lat="49.24358" lon="1.84793">
        <ele>74</ele>
        <time>2016-12-21T08:49:46Z</time>
      </trkpt>
      <trkpt lat="49.24356" lon="1.84805">
        <ele>74</ele>
        <time>2016-12-21T08:49:52Z</time>
      </trkpt>
      <trkpt lat="49.24352" lon="1.84843">
        <ele>76</ele>
        <time>2016-12-21T08:50:07Z</time>
      </trkpt>
      <trkpt lat="49.24352" lon="1.84856">
        <ele>77</ele>
        <time>2016-12-21T08:50:12Z</time>
      </trkpt>
      <trkpt lat="49.24355" lon="1.84869">
        <ele>77</ele>
        <time>2016-12-21T08:50:19Z</time>
      </trkpt>
      <trkpt lat="49.24352" lon="1.84888">
        <ele>78</ele>
        <time>2016-12-21T08:50:26Z</time>
      </trkpt>
      <trkpt lat="49.24354" lon="1.84901">
        <ele>78</ele>
        <time>2016-12-21T08:50:34Z</time>
      </trkpt>
      <trkpt lat="49.24358" lon="1.84903">
        <ele>76</ele>
        <time>2016-12-21T08:50:42Z</time>
      </trkpt>
      <trkpt lat="49.24358" lon="1.84909">
        <ele>74</ele>
        <time>2016-12-21T08:50:44Z</time>
      </trkpt>
      <trkpt lat="49.24364" lon="1.84908">
        <ele>72</ele>
        <time>2016-12-21T08:50:46Z</time>
      </trkpt>
      <trkpt lat="49.24366" lon="1.84913">
        <ele>73</ele>
        <time>2016-12-21T08:50:50Z</time>
      </trkpt>
      <trkpt lat="49.24367" lon="1.84935">
        <ele>74</ele>
        <time>2016-12-21T08:50:59Z</time>
      </trkpt>
      <trkpt lat="49.24373" lon="1.84948">
        <ele>76</ele>
        <time>2016-12-21T08:51:12Z</time>
      </trkpt>
      <trkpt lat="49.24375" lon="1.84955">
        <ele>76</ele>
        <time>2016-12-21T08:51:17Z</time>
      </trkpt>
      <trkpt lat="49.24372" lon="1.84963">
        <ele>75</ele>
        <time>2016-12-21T08:51:21Z</time>
      </trkpt>
      <trkpt lat="49.24377" lon="1.84987">
        <ele>75</ele>
        <time>2016-12-21T08:51:35Z</time>
      </trkpt>
      <trkpt lat="49.24379" lon="1.84995">
        <ele>76</ele>
        <time>2016-12-21T08:51:39Z</time>
      </trkpt>
      <trkpt lat="49.24383" lon="1.85001">
        <ele>78</ele>
        <time>2016-12-21T08:51:43Z</time>
      </trkpt>
      <trkpt lat="49.24387" lon="1.84996">
        <ele>79</ele>
        <time>2016-12-21T08:51:46Z</time>
      </trkpt>
      <trkpt lat="49.24388" lon="1.85002">
        <ele>77</ele>
        <time>2016-12-21T08:51:48Z</time>
      </trkpt>
      <trkpt lat="49.24397" lon="1.85025">
        <ele>79</ele>
        <time>2016-12-21T08:52:01Z</time>
      </trkpt>
      <trkpt lat="49.2441" lon="1.85031">
        <ele>77</ele>
        <time>2016-12-21T08:52:11Z</time>
      </trkpt>
      <trkpt lat="49.24417" lon="1.85034">
        <ele>77</ele>
        <time>2016-12-21T08:52:15Z</time>
      </trkpt>
      <trkpt lat="49.24425" lon="1.8503">
        <ele>77</ele>
        <time>2016-12-21T08:52:21Z</time>
      </trkpt>
      <trkpt lat="49.24431" lon="1.85039">
        <ele>77</ele>
        <time>2016-12-21T08:52:26Z</time>
      </trkpt>
      <trkpt lat="49.24447" lon="1.85046">
        <ele>74</ele>
        <time>2016-12-21T08:52:39Z</time>
      </trkpt>
      <trkpt lat="49.24453" lon="1.85048">
        <ele>73</ele>
        <time>2016-12-21T08:52:47Z</time>
      </trkpt>
      <trkpt lat="49.24457" lon="1.85056">
        <ele>73</ele>
        <time>2016-12-21T08:52:51Z</time>
      </trkpt>
      <trkpt lat="49.24476" lon="1.85065">
        <ele>73</ele>
        <time>2016-12-21T08:53:06Z</time>
      </trkpt>
      <trkpt lat="49.24485" lon="1.85076">
        <ele>78</ele>
        <time>2016-12-21T08:53:13Z</time>
      </trkpt>
      <trkpt lat="49.24494" lon="1.85076">
        <ele>76</ele>
        <time>2016-12-21T08:53:24Z</time>
      </trkpt>
      <trkpt lat="49.24498" lon="1.85083">
        <ele>75</ele>
        <time>2016-12-21T08:53:32Z</time>
      </trkpt>
      <trkpt lat="49.24504" lon="1.85083">
        <ele>75</ele>
        <time>2016-12-21T08:53:37Z</time>
      </trkpt>
      <trkpt lat="49.24509" lon="1.85087">
        <ele>74</ele>
        <time>2016-12-21T08:53:39Z</time>
      </trkpt>
      <trkpt lat="49.24515" lon="1.85085">
        <ele>74</ele>
        <time>2016-12-21T08:53:43Z</time>
      </trkpt>
      <trkpt lat="49.24537" lon="1.85074">
        <ele>77</ele>
        <time>2016-12-21T08:53:58Z</time>
      </trkpt>
      <trkpt lat="49.24562" lon="1.85078">
        <ele>88</ele>
        <time>2016-12-21T08:54:15Z</time>
      </trkpt>
      <trkpt lat="49.24569" lon="1.85074">
        <ele>87</ele>
        <time>2016-12-21T08:54:19Z</time>
      </trkpt>
      <trkpt lat="49.24574" lon="1.85074">
        <ele>85</ele>
        <time>2016-12-21T08:54:24Z</time>
      </trkpt>
      <trkpt lat="49.2459" lon="1.85082">
        <ele>86</ele>
        <time>2016-12-21T08:54:34Z</time>
      </trkpt>
      <trkpt lat="49.24594" lon="1.85079">
        <ele>92</ele>
        <time>2016-12-21T08:54:37Z</time>
      </trkpt>
      <trkpt lat="49.24612" lon="1.85082">
        <ele>91</ele>
        <time>2016-12-21T08:54:51Z</time>
      </trkpt>
      <trkpt lat="49.24615" lon="1.8509">
        <ele>91</ele>
        <time>2016-12-21T08:54:55Z</time>
      </trkpt>
      <trkpt lat="49.24624" lon="1.85105">
        <ele>91</ele>
        <time>2016-12-21T08:55:06Z</time>
      </trkpt>
      <trkpt lat="49.24624" lon="1.85113">
        <ele>90</ele>
        <time>2016-12-21T08:55:09Z</time>
      </trkpt>
      <trkpt lat="49.24629" lon="1.85128">
        <ele>90</ele>
        <time>2016-12-21T08:55:16Z</time>
      </trkpt>
      <trkpt lat="49.24627" lon="1.85134">
        <ele>92</ele>
        <time>2016-12-21T08:55:19Z</time>
      </trkpt>
      <trkpt lat="49.24628" lon="1.85139">
        <ele>93</ele>
        <time>2016-12-21T08:55:24Z</time>
      </trkpt>
      <trkpt lat="49.24626" lon="1.85142">
        <ele>93</ele>
        <time>2016-12-21T08:55:25Z</time>
      </trkpt>
      <trkpt lat="49.24627" lon="1.85146">
        <ele>93</ele>
        <time>2016-12-21T08:55:27Z</time>
      </trkpt>
      <trkpt lat="49.24632" lon="1.85148">
        <ele>91</ele>
        <time>2016-12-21T08:55:30Z</time>
      </trkpt>
      <trkpt lat="49.24637" lon="1.85154">
        <ele>90</ele>
        <time>2016-12-21T08:55:36Z</time>
      </trkpt>
      <trkpt lat="49.24653" lon="1.85157">
        <ele>98</ele>
        <time>2016-12-21T08:55:47Z</time>
      </trkpt>
      <trkpt lat="49.24663" lon="1.85178">
        <ele>96</ele>
        <time>2016-12-21T08:56:02Z</time>
      </trkpt>
      <trkpt lat="49.2467" lon="1.8518">
        <ele>98</ele>
        <time>2016-12-21T08:56:06Z</time>
      </trkpt>
      <trkpt lat="49.24677" lon="1.85187">
        <ele>100</ele>
        <time>2016-12-21T08:56:10Z</time>
      </trkpt>
      <trkpt lat="49.24683" lon="1.85192">
        <ele>102</ele>
        <time>2016-12-21T08:56:14Z</time>
      </trkpt>
      <trkpt lat="49.24686" lon="1.85197">
        <ele>104</ele>
        <time>2016-12-21T08:56:17Z</time>
      </trkpt>
      <trkpt lat="49.24692" lon="1.85196">
        <ele>105</ele>
        <time>2016-12-21T08:56:20Z</time>
      </trkpt>
      <trkpt lat="49.24697" lon="1.85211">
        <ele>107</ele>
        <time>2016-12-21T08:56:29Z</time>
      </trkpt>
      <trkpt lat="49.24699" lon="1.85217">
        <ele>108</ele>
        <time>2016-12-21T08:56:32Z</time>
      </trkpt>
      <trkpt lat="49.24704" lon="1.85221">
        <ele>111</ele>
        <time>2016-12-21T08:56:41Z</time>
      </trkpt>
      <trkpt lat="49.24712" lon="1.8523">
        <ele>114</ele>
        <time>2016-12-21T08:56:47Z</time>
      </trkpt>
      <trkpt lat="49.24717" lon="1.85234">
        <ele>115</ele>
        <time>2016-12-21T08:56:51Z</time>
      </trkpt>
      <trkpt lat="49.24718" lon="1.85251">
        <ele>115</ele>
        <time>2016-12-21T08:56:56Z</time>
      </trkpt>
      <trkpt lat="49.24725" lon="1.8527">
        <ele>114</ele>
        <time>2016-12-21T08:57:07Z</time>
      </trkpt>
      <trkpt lat="49.24727" lon="1.85273">
        <ele>114</ele>
        <time>2016-12-21T08:57:10Z</time>
      </trkpt>
      <trkpt lat="49.24728" lon="1.85279">
        <ele>114</ele>
        <time>2016-12-21T08:57:12Z</time>
      </trkpt>
      <trkpt lat="49.24733" lon="1.85281">
        <ele>113</ele>
        <time>2016-12-21T08:57:16Z</time>
      </trkpt>
      <trkpt lat="49.24742" lon="1.85308">
        <ele>119</ele>
        <time>2016-12-21T08:57:30Z</time>
      </trkpt>
      <trkpt lat="49.24749" lon="1.85311">
        <ele>118</ele>
        <time>2016-12-21T08:57:35Z</time>
      </trkpt>
      <trkpt lat="49.24764" lon="1.85338">
        <ele>115</ele>
        <time>2016-12-21T08:57:52Z</time>
      </trkpt>
      <trkpt lat="49.2477" lon="1.85343">
        <ele>116</ele>
        <time>2016-12-21T08:57:56Z</time>
      </trkpt>
      <trkpt lat="49.24772" lon="1.85352">
        <ele>116</ele>
        <time>2016-12-21T08:58:00Z</time>
      </trkpt>
      <trkpt lat="49.24776" lon="1.85354">
        <ele>116</ele>
        <time>2016-12-21T08:58:03Z</time>
      </trkpt>
      <trkpt lat="49.24784" lon="1.85367">
        <ele>118</ele>
        <time>2016-12-21T08:58:14Z</time>
      </trkpt>
      <trkpt lat="49.24784" lon="1.85372">
        <ele>120</ele>
        <time>2016-12-21T08:58:31Z</time>
      </trkpt>
      <trkpt lat="49.24788" lon="1.85381">
        <ele>120</ele>
        <time>2016-12-21T08:58:37Z</time>
      </trkpt>
      <trkpt lat="49.24796" lon="1.8539">
        <ele>119</ele>
        <time>2016-12-21T08:58:46Z</time>
      </trkpt>
      <trkpt lat="49.24799" lon="1.85397">
        <ele>121</ele>
        <time>2016-12-21T08:58:52Z</time>
      </trkpt>
      <trkpt lat="49.24809" lon="1.85421">
        <ele>121</ele>
        <time>2016-12-21T08:59:05Z</time>
      </trkpt>
      <trkpt lat="49.24812" lon="1.85423">
        <ele>120</ele>
        <time>2016-12-21T08:59:08Z</time>
      </trkpt>
      <trkpt lat="49.24814" lon="1.85418">
        <ele>119</ele>
        <time>2016-12-21T08:59:09Z</time>
      </trkpt>
      <trkpt lat="49.2484" lon="1.85464">
        <ele>116</ele>
        <time>2016-12-21T08:59:40Z</time>
      </trkpt>
      <trkpt lat="49.24841" lon="1.8547">
        <ele>117</ele>
        <time>2016-12-21T08:59:43Z</time>
      </trkpt>
      <trkpt lat="49.24847" lon="1.85475">
        <ele>117</ele>
        <time>2016-12-21T08:59:47Z</time>
      </trkpt>
      <trkpt lat="49.24863" lon="1.8549">
        <ele>123</ele>
        <time>2016-12-21T09:00:01Z</time>
      </trkpt>
      <trkpt lat="49.24868" lon="1.85496">
        <ele>119</ele>
        <time>2016-12-21T09:00:07Z</time>
      </trkpt>
      <trkpt lat="49.24869" lon="1.85501">
        <ele>117</ele>
        <time>2016-12-21T09:00:09Z</time>
      </trkpt>
      <trkpt lat="49.24875" lon="1.85507">
        <ele>116</ele>
        <time>2016-12-21T09:00:14Z</time>
      </trkpt>
      <trkpt lat="49.24885" lon="1.85521">
        <ele>117</ele>
        <time>2016-12-21T09:00:27Z</time>
      </trkpt>
      <trkpt lat="49.24886" lon="1.85526">
        <ele>116</ele>
        <time>2016-12-21T09:00:31Z</time>
      </trkpt>
      <trkpt lat="49.24889" lon="1.85528">
        <ele>116</ele>
        <time>2016-12-21T09:00:34Z</time>
      </trkpt>
      <trkpt lat="49.24915" lon="1.8557">
        <ele>114</ele>
        <time>2016-12-21T09:01:02Z</time>
      </trkpt>
      <trkpt lat="49.24946" lon="1.85618">
        <ele>118</ele>
        <time>2016-12-21T09:01:32Z</time>
      </trkpt>
      <trkpt lat="49.2495" lon="1.8562">
        <ele>118</ele>
        <time>2016-12-21T09:01:36Z</time>
      </trkpt>
      <trkpt lat="49.24957" lon="1.85636">
        <ele>120</ele>
        <time>2016-12-21T09:01:42Z</time>
      </trkpt>
      <trkpt lat="49.24965" lon="1.85646">
        <ele>119</ele>
        <time>2016-12-21T09:01:52Z</time>
      </trkpt>
      <trkpt lat="49.24985" lon="1.85673">
        <ele>114</ele>
        <time>2016-12-21T09:02:13Z</time>
      </trkpt>
      <trkpt lat="49.24993" lon="1.85673">
        <ele>108</ele>
        <time>2016-12-21T09:02:20Z</time>
      </trkpt>
      <trkpt lat="49.25" lon="1.85677">
        <ele>107</ele>
        <time>2016-12-21T09:02:27Z</time>
      </trkpt>
      <trkpt lat="49.25001" lon="1.85687">
        <ele>107</ele>
        <time>2016-12-21T09:02:29Z</time>
      </trkpt>
      <trkpt lat="49.25003" lon="1.8569">
        <ele>107</ele>
        <time>2016-12-21T09:02:31Z</time>
      </trkpt>
      <trkpt lat="49.25032" lon="1.85731">
        <ele>115</ele>
        <time>2016-12-21T09:02:57Z</time>
      </trkpt>
      <trkpt lat="49.25036" lon="1.8573">
        <ele>115</ele>
        <time>2016-12-21T09:02:59Z</time>
      </trkpt>
      <trkpt lat="49.25051" lon="1.85744">
        <ele>117</ele>
        <time>2016-12-21T09:03:12Z</time>
      </trkpt>
      <trkpt lat="49.25054" lon="1.85743">
        <ele>116</ele>
        <time>2016-12-21T09:03:14Z</time>
      </trkpt>
      <trkpt lat="49.25062" lon="1.85757">
        <ele>120</ele>
        <time>2016-12-21T09:03:23Z</time>
      </trkpt>
      <trkpt lat="49.25075" lon="1.85766">
        <ele>120</ele>
        <time>2016-12-21T09:03:33Z</time>
      </trkpt>
      <trkpt lat="49.25087" lon="1.85782">
        <ele>121</ele>
        <time>2016-12-21T09:03:46Z</time>
      </trkpt>
      <trkpt lat="49.25094" lon="1.85786">
        <ele>120</ele>
        <time>2016-12-21T09:03:52Z</time>
      </trkpt>
      <trkpt lat="49.25122" lon="1.8582">
        <ele>121</ele>
        <time>2016-12-21T09:04:18Z</time>
      </trkpt>
      <trkpt lat="49.25124" lon="1.85825">
        <ele>121</ele>
        <time>2016-12-21T09:04:22Z</time>
      </trkpt>
      <trkpt lat="49.2513" lon="1.85826">
        <ele>121</ele>
        <time>2016-12-21T09:04:26Z</time>
      </trkpt>
      <trkpt lat="49.25139" lon="1.85834">
        <ele>122</ele>
        <time>2016-12-21T09:04:34Z</time>
      </trkpt>
      <trkpt lat="49.25148" lon="1.85847">
        <ele>122</ele>
        <time>2016-12-21T09:04:43Z</time>
      </trkpt>
      <trkpt lat="49.25153" lon="1.85854">
        <ele>123</ele>
        <time>2016-12-21T09:04:47Z</time>
      </trkpt>
      <trkpt lat="49.25157" lon="1.85853">
        <ele>122</ele>
        <time>2016-12-21T09:04:50Z</time>
      </trkpt>
      <trkpt lat="49.25163" lon="1.85862">
        <ele>124</ele>
        <time>2016-12-21T09:04:56Z</time>
      </trkpt>
      <trkpt lat="49.2517" lon="1.85861">
        <ele>122</ele>
        <time>2016-12-21T09:05:01Z</time>
      </trkpt>
      <trkpt lat="49.25174" lon="1.85871">
        <ele>122</ele>
        <time>2016-12-21T09:05:05Z</time>
      </trkpt>
      <trkpt lat="49.25193" lon="1.85889">
        <ele>119</ele>
        <time>2016-12-21T09:05:22Z</time>
      </trkpt>
      <trkpt lat="49.25197" lon="1.8589">
        <ele>119</ele>
        <time>2016-12-21T09:05:25Z</time>
      </trkpt>
      <trkpt lat="49.252" lon="1.85904">
        <ele>120</ele>
        <time>2016-12-21T09:05:31Z</time>
      </trkpt>
      <trkpt lat="49.25207" lon="1.85901">
        <ele>119</ele>
        <time>2016-12-21T09:05:36Z</time>
      </trkpt>
      <trkpt lat="49.25209" lon="1.85904">
        <ele>120</ele>
        <time>2016-12-21T09:05:39Z</time>
      </trkpt>
      <trkpt lat="49.2521" lon="1.85909">
        <ele>120</ele>
        <time>2016-12-21T09:05:41Z</time>
      </trkpt>
      <trkpt lat="49.25213" lon="1.85903">
        <ele>120</ele>
        <time>2016-12-21T09:05:42Z</time>
      </trkpt>
      <trkpt lat="49.25219" lon="1.85909">
        <ele>118</ele>
        <time>2016-12-21T09:05:48Z</time>
      </trkpt>
      <trkpt lat="49.25225" lon="1.8592">
        <ele>117</ele>
        <time>2016-12-21T09:05:55Z</time>
      </trkpt>
      <trkpt lat="49.25233" lon="1.85935">
        <ele>114</ele>
        <time>2016-12-21T09:06:04Z</time>
      </trkpt>
      <trkpt lat="49.2524" lon="1.8594">
        <ele>112</ele>
        <time>2016-12-21T09:06:07Z</time>
      </trkpt>
      <trkpt lat="49.25262" lon="1.85973">
        <ele>116</ele>
        <time>2016-12-21T09:06:34Z</time>
      </trkpt>
      <trkpt lat="49.25262" lon="1.85973">
        <ele>117</ele>
        <time>2016-12-21T09:06:48Z</time>
      </trkpt>
      <trkpt lat="49.25265" lon="1.85975">
        <ele>117</ele>
        <time>2016-12-21T09:06:52Z</time>
      </trkpt>
      <trkpt lat="49.25267" lon="1.85979">
        <ele>118</ele>
        <time>2016-12-21T09:06:54Z</time>
      </trkpt>
      <trkpt lat="49.25281" lon="1.86002">
        <ele>120</ele>
        <time>2016-12-21T09:07:11Z</time>
      </trkpt>
      <trkpt lat="49.25283" lon="1.86008">
        <ele>120</ele>
        <time>2016-12-21T09:07:14Z</time>
      </trkpt>
      <trkpt lat="49.25285" lon="1.86012">
        <ele>121</ele>
        <time>2016-12-21T09:07:17Z</time>
      </trkpt>
      <trkpt lat="49.25288" lon="1.86012">
        <ele>121</ele>
        <time>2016-12-21T09:07:22Z</time>
      </trkpt>
      <trkpt lat="49.25294" lon="1.86025">
        <ele>120</ele>
        <time>2016-12-21T09:07:29Z</time>
      </trkpt>
      <trkpt lat="49.25297" lon="1.86026">
        <ele>120</ele>
        <time>2016-12-21T09:07:32Z</time>
      </trkpt>
      <trkpt lat="49.25327" lon="1.86068">
        <ele>118</ele>
        <time>2016-12-21T09:08:02Z</time>
      </trkpt>
      <trkpt lat="49.25334" lon="1.86077">
        <ele>119</ele>
        <time>2016-12-21T09:08:08Z</time>
      </trkpt>
      <trkpt lat="49.25337" lon="1.86075">
        <ele>118</ele>
        <time>2016-12-21T09:08:09Z</time>
      </trkpt>
      <trkpt lat="49.25339" lon="1.86079">
        <ele>117</ele>
        <time>2016-12-21T09:08:12Z</time>
      </trkpt>
      <trkpt lat="49.2534" lon="1.86086">
        <ele>116</ele>
        <time>2016-12-21T09:08:15Z</time>
      </trkpt>
      <trkpt lat="49.2535" lon="1.861">
        <ele>117</ele>
        <time>2016-12-21T09:08:26Z</time>
      </trkpt>
      <trkpt lat="49.25354" lon="1.86101">
        <ele>115</ele>
        <time>2016-12-21T09:08:30Z</time>
      </trkpt>
      <trkpt lat="49.25358" lon="1.86112">
        <ele>115</ele>
        <time>2016-12-21T09:08:35Z</time>
      </trkpt>
      <trkpt lat="49.25364" lon="1.86119">
        <ele>117</ele>
        <time>2016-12-21T09:08:41Z</time>
      </trkpt>
      <trkpt lat="49.25365" lon="1.86123">
        <ele>117</ele>
        <time>2016-12-21T09:08:43Z</time>
      </trkpt>
      <trkpt lat="49.25382" lon="1.86148">
        <ele>119</ele>
        <time>2016-12-21T09:09:00Z</time>
      </trkpt>
      <trkpt lat="49.25388" lon="1.86155">
        <ele>118</ele>
        <time>2016-12-21T09:09:06Z</time>
      </trkpt>
      <trkpt lat="49.2539" lon="1.86161">
        <ele>118</ele>
        <time>2016-12-21T09:09:08Z</time>
      </trkpt>
      <trkpt lat="49.25393" lon="1.86164">
        <ele>118</ele>
        <time>2016-12-21T09:09:11Z</time>
      </trkpt>
      <trkpt lat="49.25399" lon="1.86177">
        <ele>120</ele>
        <time>2016-12-21T09:09:20Z</time>
      </trkpt>
      <trkpt lat="49.25404" lon="1.86183">
        <ele>120</ele>
        <time>2016-12-21T09:09:24Z</time>
      </trkpt>
      <trkpt lat="49.25416" lon="1.86209">
        <ele>121</ele>
        <time>2016-12-21T09:09:37Z</time>
      </trkpt>
      <trkpt lat="49.2542" lon="1.86208">
        <ele>121</ele>
        <time>2016-12-21T09:09:40Z</time>
      </trkpt>
      <trkpt lat="49.25422" lon="1.86213">
        <ele>120</ele>
        <time>2016-12-21T09:09:42Z</time>
      </trkpt>
      <trkpt lat="49.25423" lon="1.8622">
        <ele>119</ele>
        <time>2016-12-21T09:09:45Z</time>
      </trkpt>
      <trkpt lat="49.25427" lon="1.86223">
        <ele>119</ele>
        <time>2016-12-21T09:09:48Z</time>
      </trkpt>
      <trkpt lat="49.25434" lon="1.86233">
        <ele>121</ele>
        <time>2016-12-21T09:09:54Z</time>
      </trkpt>
      <trkpt lat="49.25437" lon="1.86234">
        <ele>120</ele>
        <time>2016-12-21T09:09:56Z</time>
      </trkpt>
      <trkpt lat="49.25439" lon="1.86231">
        <ele>119</ele>
        <time>2016-12-21T09:09:58Z</time>
      </trkpt>
      <trkpt lat="49.25453" lon="1.86252">
        <ele>119</ele>
        <time>2016-12-21T09:10:12Z</time>
      </trkpt>
      <trkpt lat="49.25457" lon="1.86259">
        <ele>118</ele>
        <time>2016-12-21T09:10:17Z</time>
      </trkpt>
      <trkpt lat="49.2546" lon="1.8626">
        <ele>119</ele>
        <time>2016-12-21T09:10:19Z</time>
      </trkpt>
      <trkpt lat="49.25462" lon="1.86266">
        <ele>120</ele>
        <time>2016-12-21T09:10:23Z</time>
      </trkpt>
      <trkpt lat="49.2547" lon="1.86277">
        <ele>122</ele>
        <time>2016-12-21T09:10:30Z</time>
      </trkpt>
      <trkpt lat="49.25474" lon="1.86278">
        <ele>123</ele>
        <time>2016-12-21T09:10:34Z</time>
      </trkpt>
      <trkpt lat="49.25477" lon="1.86286">
        <ele>122</ele>
        <time>2016-12-21T09:10:38Z</time>
      </trkpt>
      <trkpt lat="49.2548" lon="1.86289">
        <ele>122</ele>
        <time>2016-12-21T09:10:40Z</time>
      </trkpt>
      <trkpt lat="49.25494" lon="1.86312">
        <ele>123</ele>
        <time>2016-12-21T09:10:53Z</time>
      </trkpt>
      <trkpt lat="49.25501" lon="1.86329">
        <ele>123</ele>
        <time>2016-12-21T09:11:03Z</time>
      </trkpt>
      <trkpt lat="49.25507" lon="1.86332">
        <ele>123</ele>
        <time>2016-12-21T09:11:08Z</time>
      </trkpt>
      <trkpt lat="49.25517" lon="1.86355">
        <ele>123</ele>
        <time>2016-12-21T09:11:20Z</time>
      </trkpt>
      <trkpt lat="49.25521" lon="1.86354">
        <ele>123</ele>
        <time>2016-12-21T09:11:22Z</time>
      </trkpt>
      <trkpt lat="49.25525" lon="1.86363">
        <ele>122</ele>
        <time>2016-12-21T09:11:27Z</time>
      </trkpt>
      <trkpt lat="49.2553" lon="1.86376">
        <ele>122</ele>
        <time>2016-12-21T09:11:33Z</time>
      </trkpt>
      <trkpt lat="49.25533" lon="1.86378">
        <ele>122</ele>
        <time>2016-12-21T09:11:37Z</time>
      </trkpt>
      <trkpt lat="49.25543" lon="1.86403">
        <ele>123</ele>
        <time>2016-12-21T09:11:50Z</time>
      </trkpt>
      <trkpt lat="49.25563" lon="1.86437">
        <ele>127</ele>
        <time>2016-12-21T09:12:11Z</time>
      </trkpt>
      <trkpt lat="49.25566" lon="1.86436">
        <ele>127</ele>
        <time>2016-12-21T09:12:14Z</time>
      </trkpt>
      <trkpt lat="49.25572" lon="1.86452">
        <ele>127</ele>
        <time>2016-12-21T09:12:23Z</time>
      </trkpt>
      <trkpt lat="49.25575" lon="1.86453">
        <ele>126</ele>
        <time>2016-12-21T09:12:25Z</time>
      </trkpt>
      <trkpt lat="49.25576" lon="1.86459">
        <ele>127</ele>
        <time>2016-12-21T09:12:27Z</time>
      </trkpt>
      <trkpt lat="49.25579" lon="1.86455">
        <ele>127</ele>
        <time>2016-12-21T09:12:28Z</time>
      </trkpt>
      <trkpt lat="49.25581" lon="1.86461">
        <ele>126</ele>
        <time>2016-12-21T09:12:30Z</time>
      </trkpt>
      <trkpt lat="49.25592" lon="1.86485">
        <ele>128</ele>
        <time>2016-12-21T09:12:45Z</time>
      </trkpt>
      <trkpt lat="49.25596" lon="1.86491">
        <ele>127</ele>
        <time>2016-12-21T09:12:49Z</time>
      </trkpt>
      <trkpt lat="49.25603" lon="1.86496">
        <ele>127</ele>
        <time>2016-12-21T09:12:55Z</time>
      </trkpt>
      <trkpt lat="49.25609" lon="1.86508">
        <ele>129</ele>
        <time>2016-12-21T09:13:02Z</time>
      </trkpt>
      <trkpt lat="49.2561" lon="1.86514">
        <ele>130</ele>
        <time>2016-12-21T09:13:05Z</time>
      </trkpt>
      <trkpt lat="49.25612" lon="1.86512">
        <ele>130</ele>
        <time>2016-12-21T09:13:06Z</time>
      </trkpt>
      <trkpt lat="49.25614" lon="1.86516">
        <ele>130</ele>
        <time>2016-12-21T09:13:08Z</time>
      </trkpt>
      <trkpt lat="49.25633" lon="1.8655">
        <ele>129</ele>
        <time>2016-12-21T09:13:29Z</time>
      </trkpt>
      <trkpt lat="49.25637" lon="1.8655">
        <ele>129</ele>
        <time>2016-12-21T09:13:31Z</time>
      </trkpt>
      <trkpt lat="49.25639" lon="1.86554">
        <ele>129</ele>
        <time>2016-12-21T09:13:33Z</time>
      </trkpt>
      <trkpt lat="49.2564" lon="1.86558">
        <ele>129</ele>
        <time>2016-12-21T09:13:35Z</time>
      </trkpt>
      <trkpt lat="49.25651" lon="1.86575">
        <ele>126</ele>
        <time>2016-12-21T09:13:49Z</time>
      </trkpt>
      <trkpt lat="49.2566" lon="1.86591">
        <ele>127</ele>
        <time>2016-12-21T09:13:58Z</time>
      </trkpt>
      <trkpt lat="49.25663" lon="1.86592">
        <ele>126</ele>
        <time>2016-12-21T09:14:01Z</time>
      </trkpt>
      <trkpt lat="49.25665" lon="1.866">
        <ele>126</ele>
        <time>2016-12-21T09:14:03Z</time>
      </trkpt>
      <trkpt lat="49.25668" lon="1.866">
        <ele>126</ele>
        <time>2016-12-21T09:14:05Z</time>
      </trkpt>
      <trkpt lat="49.25675" lon="1.86618">
        <ele>127</ele>
        <time>2016-12-21T09:14:13Z</time>
      </trkpt>
      <trkpt lat="49.25674" lon="1.86625">
        <ele>127</ele>
        <time>2016-12-21T09:14:15Z</time>
      </trkpt>
      <trkpt lat="49.25679" lon="1.86632">
        <ele>125</ele>
        <time>2016-12-21T09:14:22Z</time>
      </trkpt>
      <trkpt lat="49.25686" lon="1.86639">
        <ele>126</ele>
        <time>2016-12-21T09:14:27Z</time>
      </trkpt>
      <trkpt lat="49.25695" lon="1.86654">
        <ele>127</ele>
        <time>2016-12-21T09:14:37Z</time>
      </trkpt>
      <trkpt lat="49.25697" lon="1.86658">
        <ele>127</ele>
        <time>2016-12-21T09:14:39Z</time>
      </trkpt>
      <trkpt lat="49.257" lon="1.86657">
        <ele>128</ele>
        <time>2016-12-21T09:14:40Z</time>
      </trkpt>
      <trkpt lat="49.25704" lon="1.86665">
        <ele>129</ele>
        <time>2016-12-21T09:14:44Z</time>
      </trkpt>
      <trkpt lat="49.25705" lon="1.8667">
        <ele>130</ele>
        <time>2016-12-21T09:14:46Z</time>
      </trkpt>
      <trkpt lat="49.25716" lon="1.8669">
        <ele>133</ele>
        <time>2016-12-21T09:15:00Z</time>
      </trkpt>
      <trkpt lat="49.25728" lon="1.86699">
        <ele>131</ele>
        <time>2016-12-21T09:15:14Z</time>
      </trkpt>
      <trkpt lat="49.2573" lon="1.86704">
        <ele>129</ele>
        <time>2016-12-21T09:15:18Z</time>
      </trkpt>
      <trkpt lat="49.25735" lon="1.86704">
        <ele>128</ele>
        <time>2016-12-21T09:15:20Z</time>
      </trkpt>
      <trkpt lat="49.25737" lon="1.86709">
        <ele>127</ele>
        <time>2016-12-21T09:15:23Z</time>
      </trkpt>
      <trkpt lat="49.25739" lon="1.86704">
        <ele>127</ele>
        <time>2016-12-21T09:15:24Z</time>
      </trkpt>
      <trkpt lat="49.25768" lon="1.86755">
        <ele>127</ele>
        <time>2016-12-21T09:15:57Z</time>
      </trkpt>
      <trkpt lat="49.2577" lon="1.86757">
        <ele>126</ele>
        <time>2016-12-21T09:15:59Z</time>
      </trkpt>
      <trkpt lat="49.25772" lon="1.86752">
        <ele>125</ele>
        <time>2016-12-21T09:16:02Z</time>
      </trkpt>
      <trkpt lat="49.2578" lon="1.86763">
        <ele>122</ele>
        <time>2016-12-21T09:16:09Z</time>
      </trkpt>
      <trkpt lat="49.25787" lon="1.86771">
        <ele>121</ele>
        <time>2016-12-21T09:16:17Z</time>
      </trkpt>
      <trkpt lat="49.258" lon="1.86787">
        <ele>126</ele>
        <time>2016-12-21T09:16:29Z</time>
      </trkpt>
      <trkpt lat="49.25803" lon="1.86788">
        <ele>127</ele>
        <time>2016-12-21T09:16:32Z</time>
      </trkpt>
      <trkpt lat="49.25803" lon="1.86795">
        <ele>127</ele>
        <time>2016-12-21T09:16:34Z</time>
      </trkpt>
      <trkpt lat="49.25807" lon="1.86807">
        <ele>126</ele>
        <time>2016-12-21T09:16:42Z</time>
      </trkpt>
      <trkpt lat="49.25808" lon="1.86811">
        <ele>127</ele>
        <time>2016-12-21T09:16:44Z</time>
      </trkpt>
      <trkpt lat="49.25812" lon="1.86813">
        <ele>129</ele>
        <time>2016-12-21T09:16:47Z</time>
      </trkpt>
      <trkpt lat="49.25814" lon="1.86822">
        <ele>128</ele>
        <time>2016-12-21T09:16:51Z</time>
      </trkpt>
      <trkpt lat="49.25818" lon="1.86823">
        <ele>128</ele>
        <time>2016-12-21T09:16:55Z</time>
      </trkpt>
      <trkpt lat="49.2582" lon="1.86817">
        <ele>128</ele>
        <time>2016-12-21T09:16:56Z</time>
      </trkpt>
      <trkpt lat="49.25826" lon="1.86825">
        <ele>126</ele>
        <time>2016-12-21T09:17:02Z</time>
      </trkpt>
      <trkpt lat="49.25836" lon="1.86844">
        <ele>124</ele>
        <time>2016-12-21T09:17:13Z</time>
      </trkpt>
      <trkpt lat="49.25839" lon="1.86845">
        <ele>123</ele>
        <time>2016-12-21T09:17:16Z</time>
      </trkpt>
      <trkpt lat="49.25862" lon="1.8687">
        <ele>121</ele>
        <time>2016-12-21T09:17:38Z</time>
      </trkpt>
      <trkpt lat="49.25865" lon="1.86876">
        <ele>123</ele>
        <time>2016-12-21T09:17:41Z</time>
      </trkpt>
      <trkpt lat="49.25869" lon="1.86876">
        <ele>124</ele>
        <time>2016-12-21T09:17:45Z</time>
      </trkpt>
      <trkpt lat="49.25871" lon="1.8688">
        <ele>124</ele>
        <time>2016-12-21T09:17:48Z</time>
      </trkpt>
      <trkpt lat="49.25872" lon="1.86876">
        <ele>121</ele>
        <time>2016-12-21T09:17:54Z</time>
      </trkpt>
      <trkpt lat="49.25877" lon="1.86875">
        <ele>118</ele>
        <time>2016-12-21T09:17:57Z</time>
      </trkpt>
      <trkpt lat="49.259" lon="1.86881">
        <ele>118</ele>
        <time>2016-12-21T09:18:14Z</time>
      </trkpt>
      <trkpt lat="49.25903" lon="1.86879">
        <ele>116</ele>
        <time>2016-12-21T09:18:18Z</time>
      </trkpt>
      <trkpt lat="49.25912" lon="1.86876">
        <ele>114</ele>
        <time>2016-12-21T09:18:25Z</time>
      </trkpt>
      <trkpt lat="49.25914" lon="1.86869">
        <ele>114</ele>
        <time>2016-12-21T09:18:30Z</time>
      </trkpt>
      <trkpt lat="49.25922" lon="1.86865">
        <ele>112</ele>
        <time>2016-12-21T09:18:34Z</time>
      </trkpt>
      <trkpt lat="49.25927" lon="1.86866">
        <ele>110</ele>
        <time>2016-12-21T09:18:38Z</time>
      </trkpt>
      <trkpt lat="49.2594" lon="1.86861">
        <ele>108</ele>
        <time>2016-12-21T09:18:47Z</time>
      </trkpt>
      <trkpt lat="49.25942" lon="1.86854">
        <ele>110</ele>
        <time>2016-12-21T09:18:51Z</time>
      </trkpt>
      <trkpt lat="49.25947" lon="1.86851">
        <ele>111</ele>
        <time>2016-12-21T09:18:55Z</time>
      </trkpt>
      <trkpt lat="49.25954" lon="1.86852">
        <ele>110</ele>
        <time>2016-12-21T09:19:00Z</time>
      </trkpt>
      <trkpt lat="49.25966" lon="1.86862">
        <ele>108</ele>
        <time>2016-12-21T09:19:09Z</time>
      </trkpt>
      <trkpt lat="49.25969" lon="1.86871">
        <ele>107</ele>
        <time>2016-12-21T09:19:14Z</time>
      </trkpt>
      <trkpt lat="49.25972" lon="1.86869">
        <ele>108</ele>
        <time>2016-12-21T09:19:16Z</time>
      </trkpt>
      <trkpt lat="49.25978" lon="1.86872">
        <ele>109</ele>
        <time>2016-12-21T09:19:25Z</time>
      </trkpt>
      <trkpt lat="49.25985" lon="1.8688">
        <ele>109</ele>
        <time>2016-12-21T09:19:31Z</time>
      </trkpt>
      <trkpt lat="49.25994" lon="1.86882">
        <ele>112</ele>
        <time>2016-12-21T09:19:39Z</time>
      </trkpt>
      <trkpt lat="49.25996" lon="1.86885">
        <ele>111</ele>
        <time>2016-12-21T09:19:43Z</time>
      </trkpt>
      <trkpt lat="49.26001" lon="1.86889">
        <ele>111</ele>
        <time>2016-12-21T09:19:50Z</time>
      </trkpt>
      <trkpt lat="49.26" lon="1.86886">
        <ele>111</ele>
        <time>2016-12-21T09:19:52Z</time>
      </trkpt>
      <trkpt lat="49.26005" lon="1.86893">
        <ele>112</ele>
        <time>2016-12-21T09:19:54Z</time>
      </trkpt>
      <trkpt lat="49.26009" lon="1.869">
        <ele>113</ele>
        <time>2016-12-21T09:19:57Z</time>
      </trkpt>
      <trkpt lat="49.26013" lon="1.86899">
        <ele>111</ele>
        <time>2016-12-21T09:19:59Z</time>
      </trkpt>
      <trkpt lat="49.26024" lon="1.86906">
        <ele>112</ele>
        <time>2016-12-21T09:20:06Z</time>
      </trkpt>
      <trkpt lat="49.26026" lon="1.86904">
        <ele>112</ele>
        <time>2016-12-21T09:20:08Z</time>
      </trkpt>
      <trkpt lat="49.26033" lon="1.86905">
        <ele>111</ele>
        <time>2016-12-21T09:20:12Z</time>
      </trkpt>
      <trkpt lat="49.26042" lon="1.86896">
        <ele>113</ele>
        <time>2016-12-21T09:20:20Z</time>
      </trkpt>
      <trkpt lat="49.26045" lon="1.86883">
        <ele>113</ele>
        <time>2016-12-21T09:20:27Z</time>
      </trkpt>
      <trkpt lat="49.26045" lon="1.86876">
        <ele>114</ele>
        <time>2016-12-21T09:20:30Z</time>
      </trkpt>
      <trkpt lat="49.26051" lon="1.86858">
        <ele>116</ele>
        <time>2016-12-21T09:20:43Z</time>
      </trkpt>
      <trkpt lat="49.26047" lon="1.86857">
        <ele>115</ele>
        <time>2016-12-21T09:20:57Z</time>
      </trkpt>
      <trkpt lat="49.26045" lon="1.86856">
        <ele>121</ele>
        <time>2016-12-21T09:22:15Z</time>
      </trkpt>
      <trkpt lat="49.26048" lon="1.86853">
        <ele>124</ele>
        <time>2016-12-21T09:23:59Z</time>
      </trkpt>
      <trkpt lat="49.26046" lon="1.86849">
        <ele>118</ele>
        <time>2016-12-21T09:24:21Z</time>
      </trkpt>
      <trkpt lat="49.26047" lon="1.8685">
        <ele>111</ele>
        <time>2016-12-21T09:25:09Z</time>
      </trkpt>
      <trkpt lat="49.26053" lon="1.86854">
        <ele>117</ele>
        <time>2016-12-21T09:26:18Z</time>
      </trkpt>
      <trkpt lat="49.26052" lon="1.86855">
        <ele>113</ele>
        <time>2016-12-21T09:27:43Z</time>
      </trkpt>
      <trkpt lat="49.26052" lon="1.86849">
        <ele>113</ele>
        <time>2016-12-21T09:27:59Z</time>
      </trkpt>
      <trkpt lat="49.26052" lon="1.86824">
        <ele>114</ele>
        <time>2016-12-21T09:28:14Z</time>
      </trkpt>
      <trkpt lat="49.26054" lon="1.86819">
        <ele>114</ele>
        <time>2016-12-21T09:28:21Z</time>
      </trkpt>
      <trkpt lat="49.26054" lon="1.86804">
        <ele>115</ele>
        <time>2016-12-21T09:28:28Z</time>
      </trkpt>
      <trkpt lat="49.26055" lon="1.86799">
        <ele>115</ele>
        <time>2016-12-21T09:28:31Z</time>
      </trkpt>
      <trkpt lat="49.26058" lon="1.86792">
        <ele>113</ele>
        <time>2016-12-21T09:28:36Z</time>
      </trkpt>
      <trkpt lat="49.26057" lon="1.86786">
        <ele>114</ele>
        <time>2016-12-21T09:28:37Z</time>
      </trkpt>
      <trkpt lat="49.26059" lon="1.86774">
        <ele>117</ele>
        <time>2016-12-21T09:28:44Z</time>
      </trkpt>
      <trkpt lat="49.26059" lon="1.86769">
        <ele>119</ele>
        <time>2016-12-21T09:28:47Z</time>
      </trkpt>
      <trkpt lat="49.26063" lon="1.8676">
        <ele>119</ele>
        <time>2016-12-21T09:28:55Z</time>
      </trkpt>
      <trkpt lat="49.26068" lon="1.86738">
        <ele>117</ele>
        <time>2016-12-21T09:29:08Z</time>
      </trkpt>
      <trkpt lat="49.26069" lon="1.86737">
        <ele>114</ele>
        <time>2016-12-21T09:29:40Z</time>
      </trkpt>
      <trkpt lat="49.26076" lon="1.86712">
        <ele>110</ele>
        <time>2016-12-21T09:29:56Z</time>
      </trkpt>
      <trkpt lat="49.26069" lon="1.8666">
        <ele>118</ele>
        <time>2016-12-21T09:30:26Z</time>
      </trkpt>
      <trkpt lat="49.26069" lon="1.86652">
        <ele>117</ele>
        <time>2016-12-21T09:30:30Z</time>
      </trkpt>
      <trkpt lat="49.26068" lon="1.86635">
        <ele>118</ele>
        <time>2016-12-21T09:30:34Z</time>
      </trkpt>
      <trkpt lat="49.26062" lon="1.8659">
        <ele>121</ele>
        <time>2016-12-21T09:30:48Z</time>
      </trkpt>
      <trkpt lat="49.26061" lon="1.86584">
        <ele>120</ele>
        <time>2016-12-21T09:30:51Z</time>
      </trkpt>
      <trkpt lat="49.26063" lon="1.86578">
        <ele>118</ele>
        <time>2016-12-21T09:30:58Z</time>
      </trkpt>
      <trkpt lat="49.26059" lon="1.86542">
        <ele>122</ele>
        <time>2016-12-21T09:31:15Z</time>
      </trkpt>
      <trkpt lat="49.26053" lon="1.86519">
        <ele>123</ele>
        <time>2016-12-21T09:31:25Z</time>
      </trkpt>
      <trkpt lat="49.26052" lon="1.86514">
        <ele>123</ele>
        <time>2016-12-21T09:31:28Z</time>
      </trkpt>
      <trkpt lat="49.26054" lon="1.8651">
        <ele>123</ele>
        <time>2016-12-21T09:31:31Z</time>
      </trkpt>
      <trkpt lat="49.26052" lon="1.86503">
        <ele>120</ele>
        <time>2016-12-21T09:31:36Z</time>
      </trkpt>
      <trkpt lat="49.26053" lon="1.86498">
        <ele>120</ele>
        <time>2016-12-21T09:31:38Z</time>
      </trkpt>
      <trkpt lat="49.26051" lon="1.86494">
        <ele>121</ele>
        <time>2016-12-21T09:31:41Z</time>
      </trkpt>
      <trkpt lat="49.26051" lon="1.86485">
        <ele>122</ele>
        <time>2016-12-21T09:31:46Z</time>
      </trkpt>
      <trkpt lat="49.26047" lon="1.86468">
        <ele>125</ele>
        <time>2016-12-21T09:31:57Z</time>
      </trkpt>
      <trkpt lat="49.26045" lon="1.86445">
        <ele>125</ele>
        <time>2016-12-21T09:32:10Z</time>
      </trkpt>
      <trkpt lat="49.26047" lon="1.8644">
        <ele>125</ele>
        <time>2016-12-21T09:32:14Z</time>
      </trkpt>
      <trkpt lat="49.26046" lon="1.86434">
        <ele>123</ele>
        <time>2016-12-21T09:32:18Z</time>
      </trkpt>
      <trkpt lat="49.26045" lon="1.86426">
        <ele>122</ele>
        <time>2016-12-21T09:32:22Z</time>
      </trkpt>
      <trkpt lat="49.26041" lon="1.86408">
        <ele>119</ele>
        <time>2016-12-21T09:32:34Z</time>
      </trkpt>
      <trkpt lat="49.26038" lon="1.86396">
        <ele>121</ele>
        <time>2016-12-21T09:32:43Z</time>
      </trkpt>
      <trkpt lat="49.26039" lon="1.86389">
        <ele>122</ele>
        <time>2016-12-21T09:32:47Z</time>
      </trkpt>
      <trkpt lat="49.26039" lon="1.86379">
        <ele>119</ele>
        <time>2016-12-21T09:32:57Z</time>
      </trkpt>
      <trkpt lat="49.26039" lon="1.86373">
        <ele>117</ele>
        <time>2016-12-21T09:33:00Z</time>
      </trkpt>
      <trkpt lat="49.26039" lon="1.86363">
        <ele>115</ele>
        <time>2016-12-21T09:33:09Z</time>
      </trkpt>
      <trkpt lat="49.26036" lon="1.86355">
        <ele>115</ele>
        <time>2016-12-21T09:33:14Z</time>
      </trkpt>
      <trkpt lat="49.26037" lon="1.86348">
        <ele>119</ele>
        <time>2016-12-21T09:33:18Z</time>
      </trkpt>
      <trkpt lat="49.26033" lon="1.8633">
        <ele>121</ele>
        <time>2016-12-21T09:33:24Z</time>
      </trkpt>
      <trkpt lat="49.26025" lon="1.86272">
        <ele>122</ele>
        <time>2016-12-21T09:33:54Z</time>
      </trkpt>
      <trkpt lat="49.26025" lon="1.86245">
        <ele>123</ele>
        <time>2016-12-21T09:34:10Z</time>
      </trkpt>
      <trkpt lat="49.26021" lon="1.8623">
        <ele>124</ele>
        <time>2016-12-21T09:34:20Z</time>
      </trkpt>
      <trkpt lat="49.2602" lon="1.86213">
        <ele>122</ele>
        <time>2016-12-21T09:34:31Z</time>
      </trkpt>
      <trkpt lat="49.26022" lon="1.86207">
        <ele>121</ele>
        <time>2016-12-21T09:34:34Z</time>
      </trkpt>
      <trkpt lat="49.26021" lon="1.86199">
        <ele>122</ele>
        <time>2016-12-21T09:34:37Z</time>
      </trkpt>
      <trkpt lat="49.2602" lon="1.86194">
        <ele>123</ele>
        <time>2016-12-21T09:34:40Z</time>
      </trkpt>
      <trkpt lat="49.26017" lon="1.86188">
        <ele>124</ele>
        <time>2016-12-21T09:34:42Z</time>
      </trkpt>
      <trkpt lat="49.26013" lon="1.86146">
        <ele>125</ele>
        <time>2016-12-21T09:35:09Z</time>
      </trkpt>
      <trkpt lat="49.26012" lon="1.86129">
        <ele>124</ele>
        <time>2016-12-21T09:35:15Z</time>
      </trkpt>
      <trkpt lat="49.26012" lon="1.86123">
        <ele>125</ele>
        <time>2016-12-21T09:35:22Z</time>
      </trkpt>
      <trkpt lat="49.2601" lon="1.86118">
        <ele>125</ele>
        <time>2016-12-21T09:35:24Z</time>
      </trkpt>
      <trkpt lat="49.26011" lon="1.86111">
        <ele>125</ele>
        <time>2016-12-21T09:35:27Z</time>
      </trkpt>
      <trkpt lat="49.26005" lon="1.86083">
        <ele>127</ele>
        <time>2016-12-21T09:35:43Z</time>
      </trkpt>
      <trkpt lat="49.26006" lon="1.86076">
        <ele>127</ele>
        <time>2016-12-21T09:35:46Z</time>
      </trkpt>
      <trkpt lat="49.26004" lon="1.86067">
        <ele>128</ele>
        <time>2016-12-21T09:35:52Z</time>
      </trkpt>
      <trkpt lat="49.26004" lon="1.86059">
        <ele>131</ele>
        <time>2016-12-21T09:35:56Z</time>
      </trkpt>
      <trkpt lat="49.26006" lon="1.86043">
        <ele>130</ele>
        <time>2016-12-21T09:36:07Z</time>
      </trkpt>
      <trkpt lat="49.26009" lon="1.86041">
        <ele>130</ele>
        <time>2016-12-21T09:36:09Z</time>
      </trkpt>
      <trkpt lat="49.26007" lon="1.86037">
        <ele>130</ele>
        <time>2016-12-21T09:36:12Z</time>
      </trkpt>
      <trkpt lat="49.26007" lon="1.86033">
        <ele>131</ele>
        <time>2016-12-21T09:36:14Z</time>
      </trkpt>
      <trkpt lat="49.26003" lon="1.86015">
        <ele>131</ele>
        <time>2016-12-21T09:36:21Z</time>
      </trkpt>
      <trkpt lat="49.26005" lon="1.86007">
        <ele>128</ele>
        <time>2016-12-21T09:36:25Z</time>
      </trkpt>
      <trkpt lat="49.26004" lon="1.86002">
        <ele>128</ele>
        <time>2016-12-21T09:36:28Z</time>
      </trkpt>
      <trkpt lat="49.2601" lon="1.85983">
        <ele>128</ele>
        <time>2016-12-21T09:36:40Z</time>
      </trkpt>
      <trkpt lat="49.2601" lon="1.85975">
        <ele>128</ele>
        <time>2016-12-21T09:36:44Z</time>
      </trkpt>
      <trkpt lat="49.26008" lon="1.85971">
        <ele>128</ele>
        <time>2016-12-21T09:36:47Z</time>
      </trkpt>
      <trkpt lat="49.26012" lon="1.85955">
        <ele>129</ele>
        <time>2016-12-21T09:36:54Z</time>
      </trkpt>
      <trkpt lat="49.26008" lon="1.85949">
        <ele>130</ele>
        <time>2016-12-21T09:36:57Z</time>
      </trkpt>
      <trkpt lat="49.26008" lon="1.85941">
        <ele>130</ele>
        <time>2016-12-21T09:37:00Z</time>
      </trkpt>
      <trkpt lat="49.26009" lon="1.85934">
        <ele>127</ele>
        <time>2016-12-21T09:37:03Z</time>
      </trkpt>
      <trkpt lat="49.26008" lon="1.85913">
        <ele>127</ele>
        <time>2016-12-21T09:37:16Z</time>
      </trkpt>
      <trkpt lat="49.2601" lon="1.85909">
        <ele>127</ele>
        <time>2016-12-21T09:37:18Z</time>
      </trkpt>
      <trkpt lat="49.26012" lon="1.85888">
        <ele>130</ele>
        <time>2016-12-21T09:37:32Z</time>
      </trkpt>
      <trkpt lat="49.26011" lon="1.85884">
        <ele>129</ele>
        <time>2016-12-21T09:37:35Z</time>
      </trkpt>
      <trkpt lat="49.26013" lon="1.85877">
        <ele>128</ele>
        <time>2016-12-21T09:37:37Z</time>
      </trkpt>
      <trkpt lat="49.26009" lon="1.8587">
        <ele>127</ele>
        <time>2016-12-21T09:37:40Z</time>
      </trkpt>
      <trkpt lat="49.26011" lon="1.85863">
        <ele>127</ele>
        <time>2016-12-21T09:37:42Z</time>
      </trkpt>
      <trkpt lat="49.26008" lon="1.85851">
        <ele>126</ele>
        <time>2016-12-21T09:37:49Z</time>
      </trkpt>
      <trkpt lat="49.26005" lon="1.8585">
        <ele>127</ele>
        <time>2016-12-21T09:37:50Z</time>
      </trkpt>
      <trkpt lat="49.26009" lon="1.85842">
        <ele>126</ele>
        <time>2016-12-21T09:37:58Z</time>
      </trkpt>
      <trkpt lat="49.26008" lon="1.85822">
        <ele>125</ele>
        <time>2016-12-21T09:38:10Z</time>
      </trkpt>
      <trkpt lat="49.26012" lon="1.85791">
        <ele>125</ele>
        <time>2016-12-21T09:38:25Z</time>
      </trkpt>
      <trkpt lat="49.26008" lon="1.85786">
        <ele>125</ele>
        <time>2016-12-21T09:38:28Z</time>
      </trkpt>
      <trkpt lat="49.26009" lon="1.85778">
        <ele>126</ele>
        <time>2016-12-21T09:38:32Z</time>
      </trkpt>
      <trkpt lat="49.26012" lon="1.85735">
        <ele>136</ele>
        <time>2016-12-21T09:38:55Z</time>
      </trkpt>
      <trkpt lat="49.26015" lon="1.85722">
        <ele>134</ele>
        <time>2016-12-21T09:39:03Z</time>
      </trkpt>
      <trkpt lat="49.26016" lon="1.85718">
        <ele>134</ele>
        <time>2016-12-21T09:39:06Z</time>
      </trkpt>
      <trkpt lat="49.2601" lon="1.85709">
        <ele>132</ele>
        <time>2016-12-21T09:39:11Z</time>
      </trkpt>
      <trkpt lat="49.2601" lon="1.85703">
        <ele>131</ele>
        <time>2016-12-21T09:39:15Z</time>
      </trkpt>
      <trkpt lat="49.26006" lon="1.85663">
        <ele>126</ele>
        <time>2016-12-21T09:39:45Z</time>
      </trkpt>
      <trkpt lat="49.26009" lon="1.85656">
        <ele>125</ele>
        <time>2016-12-21T09:39:51Z</time>
      </trkpt>
      <trkpt lat="49.2601" lon="1.85638">
        <ele>126</ele>
        <time>2016-12-21T09:39:58Z</time>
      </trkpt>
      <trkpt lat="49.26013" lon="1.85619">
        <ele>126</ele>
        <time>2016-12-21T09:40:09Z</time>
      </trkpt>
      <trkpt lat="49.26016" lon="1.85615">
        <ele>127</ele>
        <time>2016-12-21T09:40:16Z</time>
      </trkpt>
      <trkpt lat="49.26016" lon="1.85609">
        <ele>127</ele>
        <time>2016-12-21T09:40:18Z</time>
      </trkpt>
      <trkpt lat="49.26018" lon="1.85605">
        <ele>128</ele>
        <time>2016-12-21T09:40:20Z</time>
      </trkpt>
      <trkpt lat="49.26018" lon="1.85593">
        <ele>126</ele>
        <time>2016-12-21T09:40:27Z</time>
      </trkpt>
      <trkpt lat="49.26021" lon="1.85589">
        <ele>125</ele>
        <time>2016-12-21T09:40:30Z</time>
      </trkpt>
      <trkpt lat="49.2603" lon="1.85566">
        <ele>126</ele>
        <time>2016-12-21T09:40:47Z</time>
      </trkpt>
      <trkpt lat="49.26031" lon="1.85559">
        <ele>129</ele>
        <time>2016-12-21T09:40:49Z</time>
      </trkpt>
      <trkpt lat="49.26037" lon="1.85552">
        <ele>127</ele>
        <time>2016-12-21T09:40:56Z</time>
      </trkpt>
      <trkpt lat="49.26037" lon="1.85546">
        <ele>127</ele>
        <time>2016-12-21T09:40:59Z</time>
      </trkpt>
      <trkpt lat="49.2604" lon="1.8554">
        <ele>127</ele>
        <time>2016-12-21T09:41:03Z</time>
      </trkpt>
      <trkpt lat="49.26037" lon="1.85536">
        <ele>128</ele>
        <time>2016-12-21T09:41:05Z</time>
      </trkpt>
      <trkpt lat="49.26042" lon="1.85527">
        <ele>128</ele>
        <time>2016-12-21T09:41:11Z</time>
      </trkpt>
      <trkpt lat="49.26044" lon="1.85525">
        <ele>129</ele>
        <time>2016-12-21T09:41:15Z</time>
      </trkpt>
      <trkpt lat="49.26046" lon="1.85515">
        <ele>128</ele>
        <time>2016-12-21T09:41:19Z</time>
      </trkpt>
      <trkpt lat="49.26046" lon="1.85505">
        <ele>130</ele>
        <time>2016-12-21T09:41:23Z</time>
      </trkpt>
      <trkpt lat="49.26049" lon="1.85503">
        <ele>130</ele>
        <time>2016-12-21T09:41:26Z</time>
      </trkpt>
      <trkpt lat="49.26049" lon="1.85496">
        <ele>131</ele>
        <time>2016-12-21T09:41:29Z</time>
      </trkpt>
      <trkpt lat="49.26055" lon="1.85492">
        <ele>133</ele>
        <time>2016-12-21T09:41:35Z</time>
      </trkpt>
      <trkpt lat="49.26057" lon="1.85479">
        <ele>134</ele>
        <time>2016-12-21T09:41:42Z</time>
      </trkpt>
      <trkpt lat="49.26056" lon="1.85475">
        <ele>134</ele>
        <time>2016-12-21T09:41:44Z</time>
      </trkpt>
      <trkpt lat="49.26059" lon="1.85471">
        <ele>134</ele>
        <time>2016-12-21T09:41:47Z</time>
      </trkpt>
      <trkpt lat="49.26061" lon="1.85464">
        <ele>134</ele>
        <time>2016-12-21T09:41:51Z</time>
      </trkpt>
      <trkpt lat="49.26068" lon="1.85461">
        <ele>132</ele>
        <time>2016-12-21T09:41:56Z</time>
      </trkpt>
      <trkpt lat="49.26069" lon="1.85454">
        <ele>132</ele>
        <time>2016-12-21T09:41:59Z</time>
      </trkpt>
      <trkpt lat="49.26075" lon="1.85454">
        <ele>130</ele>
        <time>2016-12-21T09:42:12Z</time>
      </trkpt>
      <trkpt lat="49.26077" lon="1.85448">
        <ele>128</ele>
        <time>2016-12-21T09:42:17Z</time>
      </trkpt>
      <trkpt lat="49.26076" lon="1.85437">
        <ele>128</ele>
        <time>2016-12-21T09:42:21Z</time>
      </trkpt>
      <trkpt lat="49.26076" lon="1.85426">
        <ele>130</ele>
        <time>2016-12-21T09:42:25Z</time>
      </trkpt>
      <trkpt lat="49.26079" lon="1.85422">
        <ele>131</ele>
        <time>2016-12-21T09:42:37Z</time>
      </trkpt>
      <trkpt lat="49.26083" lon="1.85416">
        <ele>127</ele>
        <time>2016-12-21T09:42:42Z</time>
      </trkpt>
      <trkpt lat="49.26087" lon="1.85406">
        <ele>125</ele>
        <time>2016-12-21T09:42:45Z</time>
      </trkpt>
      <trkpt lat="49.26088" lon="1.85398">
        <ele>123</ele>
        <time>2016-12-21T09:42:51Z</time>
      </trkpt>
      <trkpt lat="49.26091" lon="1.85393">
        <ele>122</ele>
        <time>2016-12-21T09:42:54Z</time>
      </trkpt>
      <trkpt lat="49.26093" lon="1.85382">
        <ele>122</ele>
        <time>2016-12-21T09:42:58Z</time>
      </trkpt>
      <trkpt lat="49.26096" lon="1.85375">
        <ele>123</ele>
        <time>2016-12-21T09:43:01Z</time>
      </trkpt>
      <trkpt lat="49.26101" lon="1.85357">
        <ele>130</ele>
        <time>2016-12-21T09:43:10Z</time>
      </trkpt>
      <trkpt lat="49.26108" lon="1.85338">
        <ele>132</ele>
        <time>2016-12-21T09:43:22Z</time>
      </trkpt>
      <trkpt lat="49.26107" lon="1.85334">
        <ele>131</ele>
        <time>2016-12-21T09:43:24Z</time>
      </trkpt>
      <trkpt lat="49.26114" lon="1.8532">
        <ele>130</ele>
        <time>2016-12-21T09:43:34Z</time>
      </trkpt>
      <trkpt lat="49.26114" lon="1.85313">
        <ele>130</ele>
        <time>2016-12-21T09:43:37Z</time>
      </trkpt>
      <trkpt lat="49.2612" lon="1.85299">
        <ele>130</ele>
        <time>2016-12-21T09:43:46Z</time>
      </trkpt>
      <trkpt lat="49.26122" lon="1.85297">
        <ele>127</ele>
        <time>2016-12-21T09:43:48Z</time>
      </trkpt>
      <trkpt lat="49.26128" lon="1.85274">
        <ele>124</ele>
        <time>2016-12-21T09:44:01Z</time>
      </trkpt>
      <trkpt lat="49.26132" lon="1.85273">
        <ele>125</ele>
        <time>2016-12-21T09:44:04Z</time>
      </trkpt>
      <trkpt lat="49.26132" lon="1.85268">
        <ele>126</ele>
        <time>2016-12-21T09:44:07Z</time>
      </trkpt>
      <trkpt lat="49.26135" lon="1.8526">
        <ele>128</ele>
        <time>2016-12-21T09:44:14Z</time>
      </trkpt>
      <trkpt lat="49.26135" lon="1.85253">
        <ele>129</ele>
        <time>2016-12-21T09:44:17Z</time>
      </trkpt>
      <trkpt lat="49.26136" lon="1.85234">
        <ele>133</ele>
        <time>2016-12-21T09:44:28Z</time>
      </trkpt>
      <trkpt lat="49.26138" lon="1.85232">
        <ele>134</ele>
        <time>2016-12-21T09:44:30Z</time>
      </trkpt>
      <trkpt lat="49.26142" lon="1.85223">
        <ele>134</ele>
        <time>2016-12-21T09:44:37Z</time>
      </trkpt>
      <trkpt lat="49.26147" lon="1.85223">
        <ele>133</ele>
        <time>2016-12-21T09:44:41Z</time>
      </trkpt>
      <trkpt lat="49.26151" lon="1.85201">
        <ele>133</ele>
        <time>2016-12-21T09:44:55Z</time>
      </trkpt>
      <trkpt lat="49.26153" lon="1.85199">
        <ele>134</ele>
        <time>2016-12-21T09:44:58Z</time>
      </trkpt>
      <trkpt lat="49.26154" lon="1.85189">
        <ele>135</ele>
        <time>2016-12-21T09:45:04Z</time>
      </trkpt>
      <trkpt lat="49.26156" lon="1.85185">
        <ele>135</ele>
        <time>2016-12-21T09:45:07Z</time>
      </trkpt>
      <trkpt lat="49.26156" lon="1.85181">
        <ele>136</ele>
        <time>2016-12-21T09:45:09Z</time>
      </trkpt>
      <trkpt lat="49.26158" lon="1.85182">
        <ele>134</ele>
        <time>2016-12-21T09:45:11Z</time>
      </trkpt>
      <trkpt lat="49.2616" lon="1.85178">
        <ele>132</ele>
        <time>2016-12-21T09:45:14Z</time>
      </trkpt>
      <trkpt lat="49.26164" lon="1.85171">
        <ele>132</ele>
        <time>2016-12-21T09:45:18Z</time>
      </trkpt>
      <trkpt lat="49.26167" lon="1.85157">
        <ele>132</ele>
        <time>2016-12-21T09:45:24Z</time>
      </trkpt>
      <trkpt lat="49.26167" lon="1.85152">
        <ele>131</ele>
        <time>2016-12-21T09:45:27Z</time>
      </trkpt>
      <trkpt lat="49.26173" lon="1.85147">
        <ele>129</ele>
        <time>2016-12-21T09:45:32Z</time>
      </trkpt>
      <trkpt lat="49.26174" lon="1.85143">
        <ele>130</ele>
        <time>2016-12-21T09:45:35Z</time>
      </trkpt>
      <trkpt lat="49.26178" lon="1.85131">
        <ele>130</ele>
        <time>2016-12-21T09:45:42Z</time>
      </trkpt>
      <trkpt lat="49.2618" lon="1.85127">
        <ele>130</ele>
        <time>2016-12-21T09:45:46Z</time>
      </trkpt>
      <trkpt lat="49.26181" lon="1.85117">
        <ele>129</ele>
        <time>2016-12-21T09:45:50Z</time>
      </trkpt>
      <trkpt lat="49.26182" lon="1.85109">
        <ele>129</ele>
        <time>2016-12-21T09:45:53Z</time>
      </trkpt>
      <trkpt lat="49.26186" lon="1.85107">
        <ele>128</ele>
        <time>2016-12-21T09:45:55Z</time>
      </trkpt>
      <trkpt lat="49.26189" lon="1.85092">
        <ele>126</ele>
        <time>2016-12-21T09:46:04Z</time>
      </trkpt>
      <trkpt lat="49.2619" lon="1.85087">
        <ele>127</ele>
        <time>2016-12-21T09:46:07Z</time>
      </trkpt>
      <trkpt lat="49.26192" lon="1.85084">
        <ele>129</ele>
        <time>2016-12-21T09:46:09Z</time>
      </trkpt>
      <trkpt lat="49.26197" lon="1.85071">
        <ele>130</ele>
        <time>2016-12-21T09:46:17Z</time>
      </trkpt>
      <trkpt lat="49.26196" lon="1.85066">
        <ele>130</ele>
        <time>2016-12-21T09:46:20Z</time>
      </trkpt>
      <trkpt lat="49.26199" lon="1.85061">
        <ele>130</ele>
        <time>2016-12-21T09:46:22Z</time>
      </trkpt>
      <trkpt lat="49.26202" lon="1.8504">
        <ele>132</ele>
        <time>2016-12-21T09:46:37Z</time>
      </trkpt>
      <trkpt lat="49.26204" lon="1.85037">
        <ele>132</ele>
        <time>2016-12-21T09:46:40Z</time>
      </trkpt>
      <trkpt lat="49.26215" lon="1.85005">
        <ele>130</ele>
        <time>2016-12-21T09:47:03Z</time>
      </trkpt>
      <trkpt lat="49.26218" lon="1.85003">
        <ele>128</ele>
        <time>2016-12-21T09:47:06Z</time>
      </trkpt>
      <trkpt lat="49.26219" lon="1.84998">
        <ele>128</ele>
        <time>2016-12-21T09:47:09Z</time>
      </trkpt>
      <trkpt lat="49.26221" lon="1.84995">
        <ele>128</ele>
        <time>2016-12-21T09:47:12Z</time>
      </trkpt>
      <trkpt lat="49.26224" lon="1.84981">
        <ele>130</ele>
        <time>2016-12-21T09:47:20Z</time>
      </trkpt>
      <trkpt lat="49.26222" lon="1.84973">
        <ele>132</ele>
        <time>2016-12-21T09:47:22Z</time>
      </trkpt>
      <trkpt lat="49.26222" lon="1.84969">
        <ele>133</ele>
        <time>2016-12-21T09:47:25Z</time>
      </trkpt>
      <trkpt lat="49.26225" lon="1.84959">
        <ele>134</ele>
        <time>2016-12-21T09:47:33Z</time>
      </trkpt>
      <trkpt lat="49.2623" lon="1.84945">
        <ele>135</ele>
        <time>2016-12-21T09:47:40Z</time>
      </trkpt>
      <trkpt lat="49.26236" lon="1.84933">
        <ele>136</ele>
        <time>2016-12-21T09:47:48Z</time>
      </trkpt>
      <trkpt lat="49.26238" lon="1.84931">
        <ele>135</ele>
        <time>2016-12-21T09:47:51Z</time>
      </trkpt>
      <trkpt lat="49.26242" lon="1.84924">
        <ele>135</ele>
        <time>2016-12-21T09:47:59Z</time>
      </trkpt>
      <trkpt lat="49.26243" lon="1.8492">
        <ele>135</ele>
        <time>2016-12-21T09:48:03Z</time>
      </trkpt>
      <trkpt lat="49.2625" lon="1.84912">
        <ele>133</ele>
        <time>2016-12-21T09:48:13Z</time>
      </trkpt>
      <trkpt lat="49.26255" lon="1.84893">
        <ele>131</ele>
        <time>2016-12-21T09:48:23Z</time>
      </trkpt>
      <trkpt lat="49.26252" lon="1.84889">
        <ele>131</ele>
        <time>2016-12-21T09:48:30Z</time>
      </trkpt>
      <trkpt lat="49.26242" lon="1.84884">
        <ele>134</ele>
        <time>2016-12-21T09:48:40Z</time>
      </trkpt>
      <trkpt lat="49.26239" lon="1.84886">
        <ele>136</ele>
        <time>2016-12-21T09:48:42Z</time>
      </trkpt>
      <trkpt lat="49.26229" lon="1.84881">
        <ele>135</ele>
        <time>2016-12-21T09:48:52Z</time>
      </trkpt>
      <trkpt lat="49.26214" lon="1.84873">
        <ele>134</ele>
        <time>2016-12-21T09:49:06Z</time>
      </trkpt>
      <trkpt lat="49.26186" lon="1.84849">
        <ele>136</ele>
        <time>2016-12-21T09:49:36Z</time>
      </trkpt>
      <trkpt lat="49.26154" lon="1.84815">
        <ele>137</ele>
        <time>2016-12-21T09:50:06Z</time>
      </trkpt>
      <trkpt lat="49.26138" lon="1.84795">
        <ele>138</ele>
        <time>2016-12-21T09:50:22Z</time>
      </trkpt>
      <trkpt lat="49.26134" lon="1.84794">
        <ele>138</ele>
        <time>2016-12-21T09:50:26Z</time>
      </trkpt>
      <trkpt lat="49.26129" lon="1.84786">
        <ele>136</ele>
        <time>2016-12-21T09:50:34Z</time>
      </trkpt>
      <trkpt lat="49.26119" lon="1.84777">
        <ele>139</ele>
        <time>2016-12-21T09:50:45Z</time>
      </trkpt>
      <trkpt lat="49.26113" lon="1.84772">
        <ele>140</ele>
        <time>2016-12-21T09:50:50Z</time>
      </trkpt>
      <trkpt lat="49.26111" lon="1.84769">
        <ele>140</ele>
        <time>2016-12-21T09:50:52Z</time>
      </trkpt>
      <trkpt lat="49.26089" lon="1.84744">
        <ele>137</ele>
        <time>2016-12-21T09:51:12Z</time>
      </trkpt>
      <trkpt lat="49.2607" lon="1.84719">
        <ele>137</ele>
        <time>2016-12-21T09:51:31Z</time>
      </trkpt>
      <trkpt lat="49.26068" lon="1.84716">
        <ele>136</ele>
        <time>2016-12-21T09:51:33Z</time>
      </trkpt>
      <trkpt lat="49.26066" lon="1.84712">
        <ele>135</ele>
        <time>2016-12-21T09:51:35Z</time>
      </trkpt>
      <trkpt lat="49.26041" lon="1.84675">
        <ele>135</ele>
        <time>2016-12-21T09:52:06Z</time>
      </trkpt>
      <trkpt lat="49.2602" lon="1.84641">
        <ele>136</ele>
        <time>2016-12-21T09:52:33Z</time>
      </trkpt>
      <trkpt lat="49.26017" lon="1.84637">
        <ele>136</ele>
        <time>2016-12-21T09:52:36Z</time>
      </trkpt>
      <trkpt lat="49.26015" lon="1.84635">
        <ele>136</ele>
        <time>2016-12-21T09:52:40Z</time>
      </trkpt>
      <trkpt lat="49.26004" lon="1.84617">
        <ele>142</ele>
        <time>2016-12-21T09:52:51Z</time>
      </trkpt>
      <trkpt lat="49.26002" lon="1.84615">
        <ele>143</ele>
        <time>2016-12-21T09:52:54Z</time>
      </trkpt>
      <trkpt lat="49.25973" lon="1.84575">
        <ele>134</ele>
        <time>2016-12-21T09:53:24Z</time>
      </trkpt>
      <trkpt lat="49.25968" lon="1.84571">
        <ele>134</ele>
        <time>2016-12-21T09:53:28Z</time>
      </trkpt>
      <trkpt lat="49.25966" lon="1.84559">
        <ele>135</ele>
        <time>2016-12-21T09:53:37Z</time>
      </trkpt>
      <trkpt lat="49.2596" lon="1.84553">
        <ele>136</ele>
        <time>2016-12-21T09:53:41Z</time>
      </trkpt>
      <trkpt lat="49.25955" lon="1.84554">
        <ele>134</ele>
        <time>2016-12-21T09:53:44Z</time>
      </trkpt>
      <trkpt lat="49.25953" lon="1.84547">
        <ele>133</ele>
        <time>2016-12-21T09:53:47Z</time>
      </trkpt>
      <trkpt lat="49.25945" lon="1.84543">
        <ele>133</ele>
        <time>2016-12-21T09:53:54Z</time>
      </trkpt>
      <trkpt lat="49.25923" lon="1.845">
        <ele>132</ele>
        <time>2016-12-21T09:54:17Z</time>
      </trkpt>
      <trkpt lat="49.2592" lon="1.84503">
        <ele>133</ele>
        <time>2016-12-21T09:54:24Z</time>
      </trkpt>
      <trkpt lat="49.25917" lon="1.84499">
        <ele>133</ele>
        <time>2016-12-21T09:54:26Z</time>
      </trkpt>
      <trkpt lat="49.25913" lon="1.84497">
        <ele>133</ele>
        <time>2016-12-21T09:54:31Z</time>
      </trkpt>
      <trkpt lat="49.25907" lon="1.84486">
        <ele>132</ele>
        <time>2016-12-21T09:54:35Z</time>
      </trkpt>
      <trkpt lat="49.25902" lon="1.84488">
        <ele>132</ele>
        <time>2016-12-21T09:54:39Z</time>
      </trkpt>
      <trkpt lat="49.25899" lon="1.84487">
        <ele>131</ele>
        <time>2016-12-21T09:54:43Z</time>
      </trkpt>
      <trkpt lat="49.25897" lon="1.84484">
        <ele>132</ele>
        <time>2016-12-21T09:54:46Z</time>
      </trkpt>
      <trkpt lat="49.25893" lon="1.84484">
        <ele>132</ele>
        <time>2016-12-21T09:54:50Z</time>
      </trkpt>
      <trkpt lat="49.25891" lon="1.84481">
        <ele>133</ele>
        <time>2016-12-21T09:54:52Z</time>
      </trkpt>
      <trkpt lat="49.25888" lon="1.84481">
        <ele>132</ele>
        <time>2016-12-21T09:54:55Z</time>
      </trkpt>
      <trkpt lat="49.25879" lon="1.84472">
        <ele>133</ele>
        <time>2016-12-21T09:55:03Z</time>
      </trkpt>
      <trkpt lat="49.25863" lon="1.84467">
        <ele>133</ele>
        <time>2016-12-21T09:55:45Z</time>
      </trkpt>
      <trkpt lat="49.25857" lon="1.84468">
        <ele>139</ele>
        <time>2016-12-21T09:55:49Z</time>
      </trkpt>
      <trkpt lat="49.25845" lon="1.84453">
        <ele>137</ele>
        <time>2016-12-21T09:56:06Z</time>
      </trkpt>
      <trkpt lat="49.2582" lon="1.84426">
        <ele>141</ele>
        <time>2016-12-21T09:56:33Z</time>
      </trkpt>
      <trkpt lat="49.25814" lon="1.84428">
        <ele>139</ele>
        <time>2016-12-21T09:56:40Z</time>
      </trkpt>
      <trkpt lat="49.25811" lon="1.84423">
        <ele>139</ele>
        <time>2016-12-21T09:56:43Z</time>
      </trkpt>
      <trkpt lat="49.25803" lon="1.84421">
        <ele>140</ele>
        <time>2016-12-21T09:56:47Z</time>
      </trkpt>
      <trkpt lat="49.25794" lon="1.8442">
        <ele>140</ele>
        <time>2016-12-21T09:56:51Z</time>
      </trkpt>
      <trkpt lat="49.25791" lon="1.84416">
        <ele>139</ele>
        <time>2016-12-21T09:56:54Z</time>
      </trkpt>
      <trkpt lat="49.25774" lon="1.84408">
        <ele>136</ele>
        <time>2016-12-21T09:57:12Z</time>
      </trkpt>
      <trkpt lat="49.25762" lon="1.84389">
        <ele>132</ele>
        <time>2016-12-21T09:57:26Z</time>
      </trkpt>
      <trkpt lat="49.2576" lon="1.84389">
        <ele>131</ele>
        <time>2016-12-21T09:57:29Z</time>
      </trkpt>
      <trkpt lat="49.25728" lon="1.84337">
        <ele>132</ele>
        <time>2016-12-21T09:57:42Z</time>
      </trkpt>
      <trkpt lat="49.25727" lon="1.84333">
        <ele>132</ele>
        <time>2016-12-21T09:57:43Z</time>
      </trkpt>
      <trkpt lat="49.25731" lon="1.84319">
        <ele>130</ele>
        <time>2016-12-21T09:57:55Z</time>
      </trkpt>
      <trkpt lat="49.2573" lon="1.84314">
        <ele>130</ele>
        <time>2016-12-21T09:57:57Z</time>
      </trkpt>
      <trkpt lat="49.25727" lon="1.8431">
        <ele>128</ele>
        <time>2016-12-21T09:57:59Z</time>
      </trkpt>
      <trkpt lat="49.25724" lon="1.84265">
        <ele>126</ele>
        <time>2016-12-21T09:58:26Z</time>
      </trkpt>
      <trkpt lat="49.25721" lon="1.84262">
        <ele>128</ele>
        <time>2016-12-21T09:58:28Z</time>
      </trkpt>
      <trkpt lat="49.2572" lon="1.84257">
        <ele>128</ele>
        <time>2016-12-21T09:58:30Z</time>
      </trkpt>
      <trkpt lat="49.25721" lon="1.84253">
        <ele>129</ele>
        <time>2016-12-21T09:58:33Z</time>
      </trkpt>
      <trkpt lat="49.25716" lon="1.8423">
        <ele>124</ele>
        <time>2016-12-21T09:58:42Z</time>
      </trkpt>
      <trkpt lat="49.25711" lon="1.84198">
        <ele>127</ele>
        <time>2016-12-21T09:59:06Z</time>
      </trkpt>
      <trkpt lat="49.25709" lon="1.84174">
        <ele>126</ele>
        <time>2016-12-21T09:59:15Z</time>
      </trkpt>
      <trkpt lat="49.2571" lon="1.84168">
        <ele>125</ele>
        <time>2016-12-21T09:59:18Z</time>
      </trkpt>
      <trkpt lat="49.25707" lon="1.84141">
        <ele>128</ele>
        <time>2016-12-21T09:59:40Z</time>
      </trkpt>
      <trkpt lat="49.25706" lon="1.84136">
        <ele>128</ele>
        <time>2016-12-21T09:59:42Z</time>
      </trkpt>
      <trkpt lat="49.25706" lon="1.84131">
        <ele>128</ele>
        <time>2016-12-21T09:59:44Z</time>
      </trkpt>
      <trkpt lat="49.25696" lon="1.84074">
        <ele>124</ele>
        <time>2016-12-21T10:00:15Z</time>
      </trkpt>
      <trkpt lat="49.25697" lon="1.8407">
        <ele>125</ele>
        <time>2016-12-21T10:00:18Z</time>
      </trkpt>
      <trkpt lat="49.25696" lon="1.84066">
        <ele>125</ele>
        <time>2016-12-21T10:00:21Z</time>
      </trkpt>
      <trkpt lat="49.25696" lon="1.8406">
        <ele>127</ele>
        <time>2016-12-21T10:00:24Z</time>
      </trkpt>
      <trkpt lat="49.25689" lon="1.84039">
        <ele>123</ele>
        <time>2016-12-21T10:00:36Z</time>
      </trkpt>
      <trkpt lat="49.2569" lon="1.84033">
        <ele>122</ele>
        <time>2016-12-21T10:00:38Z</time>
      </trkpt>
      <trkpt lat="49.25688" lon="1.84029">
        <ele>121</ele>
        <time>2016-12-21T10:00:41Z</time>
      </trkpt>
      <trkpt lat="49.25687" lon="1.84024">
        <ele>122</ele>
        <time>2016-12-21T10:00:43Z</time>
      </trkpt>
      <trkpt lat="49.25685" lon="1.84018">
        <ele>122</ele>
        <time>2016-12-21T10:00:47Z</time>
      </trkpt>
      <trkpt lat="49.25686" lon="1.84011">
        <ele>121</ele>
        <time>2016-12-21T10:00:49Z</time>
      </trkpt>
      <trkpt lat="49.25685" lon="1.83999">
        <ele>121</ele>
        <time>2016-12-21T10:00:56Z</time>
      </trkpt>
      <trkpt lat="49.25691" lon="1.83986">
        <ele>123</ele>
        <time>2016-12-21T10:01:01Z</time>
      </trkpt>
      <trkpt lat="49.25687" lon="1.83982">
        <ele>123</ele>
        <time>2016-12-21T10:01:03Z</time>
      </trkpt>
      <trkpt lat="49.25689" lon="1.8397">
        <ele>122</ele>
        <time>2016-12-21T10:01:08Z</time>
      </trkpt>
      <trkpt lat="49.25687" lon="1.83964">
        <ele>122</ele>
        <time>2016-12-21T10:01:10Z</time>
      </trkpt>
      <trkpt lat="49.25687" lon="1.83955">
        <ele>122</ele>
        <time>2016-12-21T10:01:13Z</time>
      </trkpt>
      <trkpt lat="49.25684" lon="1.83949">
        <ele>123</ele>
        <time>2016-12-21T10:01:21Z</time>
      </trkpt>
      <trkpt lat="49.25683" lon="1.83943">
        <ele>122</ele>
        <time>2016-12-21T10:01:25Z</time>
      </trkpt>
      <trkpt lat="49.25679" lon="1.83934">
        <ele>118</ele>
        <time>2016-12-21T10:01:30Z</time>
      </trkpt>
      <trkpt lat="49.25679" lon="1.8392">
        <ele>119</ele>
        <time>2016-12-21T10:01:38Z</time>
      </trkpt>
      <trkpt lat="49.25678" lon="1.83915">
        <ele>120</ele>
        <time>2016-12-21T10:01:40Z</time>
      </trkpt>
      <trkpt lat="49.2568" lon="1.8391">
        <ele>121</ele>
        <time>2016-12-21T10:01:43Z</time>
      </trkpt>
      <trkpt lat="49.2568" lon="1.83903">
        <ele>122</ele>
        <time>2016-12-21T10:01:45Z</time>
      </trkpt>
      <trkpt lat="49.25682" lon="1.83899">
        <ele>124</ele>
        <time>2016-12-21T10:01:49Z</time>
      </trkpt>
      <trkpt lat="49.25679" lon="1.8389">
        <ele>124</ele>
        <time>2016-12-21T10:01:55Z</time>
      </trkpt>
      <trkpt lat="49.25683" lon="1.83869">
        <ele>124</ele>
        <time>2016-12-21T10:02:04Z</time>
      </trkpt>
      <trkpt lat="49.25681" lon="1.83861">
        <ele>124</ele>
        <time>2016-12-21T10:02:09Z</time>
      </trkpt>
      <trkpt lat="49.25678" lon="1.83855">
        <ele>127</ele>
        <time>2016-12-21T10:02:14Z</time>
      </trkpt>
      <trkpt lat="49.25679" lon="1.8385">
        <ele>126</ele>
        <time>2016-12-21T10:02:16Z</time>
      </trkpt>
      <trkpt lat="49.25677" lon="1.83845">
        <ele>125</ele>
        <time>2016-12-21T10:02:19Z</time>
      </trkpt>
      <trkpt lat="49.2568" lon="1.83837">
        <ele>127</ele>
        <time>2016-12-21T10:02:25Z</time>
      </trkpt>
      <trkpt lat="49.25681" lon="1.83816">
        <ele>129</ele>
        <time>2016-12-21T10:02:35Z</time>
      </trkpt>
      <trkpt lat="49.25679" lon="1.83801">
        <ele>128</ele>
        <time>2016-12-21T10:02:41Z</time>
      </trkpt>
      <trkpt lat="49.25681" lon="1.83795">
        <ele>129</ele>
        <time>2016-12-21T10:02:43Z</time>
      </trkpt>
      <trkpt lat="49.25675" lon="1.83784">
        <ele>126</ele>
        <time>2016-12-21T10:02:49Z</time>
      </trkpt>
      <trkpt lat="49.25672" lon="1.83779">
        <ele>125</ele>
        <time>2016-12-21T10:02:54Z</time>
      </trkpt>
      <trkpt lat="49.25678" lon="1.83771">
        <ele>127</ele>
        <time>2016-12-21T10:02:59Z</time>
      </trkpt>
      <trkpt lat="49.25679" lon="1.83754">
        <ele>132</ele>
        <time>2016-12-21T10:03:09Z</time>
      </trkpt>
      <trkpt lat="49.25686" lon="1.83714">
        <ele>132</ele>
        <time>2016-12-21T10:03:29Z</time>
      </trkpt>
      <trkpt lat="49.25684" lon="1.8371">
        <ele>132</ele>
        <time>2016-12-21T10:03:31Z</time>
      </trkpt>
      <trkpt lat="49.25684" lon="1.83704">
        <ele>131</ele>
        <time>2016-12-21T10:03:35Z</time>
      </trkpt>
      <trkpt lat="49.25682" lon="1.83699">
        <ele>129</ele>
        <time>2016-12-21T10:03:38Z</time>
      </trkpt>
      <trkpt lat="49.25682" lon="1.83693">
        <ele>128</ele>
        <time>2016-12-21T10:03:41Z</time>
      </trkpt>
      <trkpt lat="49.2568" lon="1.83689">
        <ele>127</ele>
        <time>2016-12-21T10:03:44Z</time>
      </trkpt>
      <trkpt lat="49.25675" lon="1.8368">
        <ele>127</ele>
        <time>2016-12-21T10:03:51Z</time>
      </trkpt>
      <trkpt lat="49.25669" lon="1.83678">
        <ele>128</ele>
        <time>2016-12-21T10:03:56Z</time>
      </trkpt>
      <trkpt lat="49.25634" lon="1.83656">
        <ele>126</ele>
        <time>2016-12-21T10:04:26Z</time>
      </trkpt>
      <trkpt lat="49.25631" lon="1.83653">
        <ele>125</ele>
        <time>2016-12-21T10:04:28Z</time>
      </trkpt>
      <trkpt lat="49.25628" lon="1.83652">
        <ele>125</ele>
        <time>2016-12-21T10:04:30Z</time>
      </trkpt>
      <trkpt lat="49.25625" lon="1.83653">
        <ele>125</ele>
        <time>2016-12-21T10:04:33Z</time>
      </trkpt>
      <trkpt lat="49.25589" lon="1.8363">
        <ele>125</ele>
        <time>2016-12-21T10:05:03Z</time>
      </trkpt>
      <trkpt lat="49.25575" lon="1.83612">
        <ele>124</ele>
        <time>2016-12-21T10:05:13Z</time>
      </trkpt>
      <trkpt lat="49.25574" lon="1.83618">
        <ele>124</ele>
        <time>2016-12-21T10:05:16Z</time>
      </trkpt>
      <trkpt lat="49.25571" lon="1.8362">
        <ele>122</ele>
        <time>2016-12-21T10:05:19Z</time>
      </trkpt>
      <trkpt lat="49.25565" lon="1.83615">
        <ele>122</ele>
        <time>2016-12-21T10:05:23Z</time>
      </trkpt>
      <trkpt lat="49.25561" lon="1.83617">
        <ele>122</ele>
        <time>2016-12-21T10:05:29Z</time>
      </trkpt>
      <trkpt lat="49.25557" lon="1.83616">
        <ele>122</ele>
        <time>2016-12-21T10:05:33Z</time>
      </trkpt>
      <trkpt lat="49.25546" lon="1.83602">
        <ele>122</ele>
        <time>2016-12-21T10:05:39Z</time>
      </trkpt>
      <trkpt lat="49.25521" lon="1.83588">
        <ele>123</ele>
        <time>2016-12-21T10:05:59Z</time>
      </trkpt>
      <trkpt lat="49.25493" lon="1.83569">
        <ele>121</ele>
        <time>2016-12-21T10:06:25Z</time>
      </trkpt>
      <trkpt lat="49.2549" lon="1.83566">
        <ele>120</ele>
        <time>2016-12-21T10:06:27Z</time>
      </trkpt>
      <trkpt lat="49.2548" lon="1.83562">
        <ele>119</ele>
        <time>2016-12-21T10:06:35Z</time>
      </trkpt>
      <trkpt lat="49.25477" lon="1.83558">
        <ele>119</ele>
        <time>2016-12-21T10:06:37Z</time>
      </trkpt>
      <trkpt lat="49.25475" lon="1.83556">
        <ele>119</ele>
        <time>2016-12-21T10:06:39Z</time>
      </trkpt>
      <trkpt lat="49.25469" lon="1.83556">
        <ele>118</ele>
        <time>2016-12-21T10:06:45Z</time>
      </trkpt>
      <trkpt lat="49.25466" lon="1.83554">
        <ele>118</ele>
        <time>2016-12-21T10:06:47Z</time>
      </trkpt>
      <trkpt lat="49.25463" lon="1.83554">
        <ele>118</ele>
        <time>2016-12-21T10:06:50Z</time>
      </trkpt>
      <trkpt lat="49.2546" lon="1.83553">
        <ele>119</ele>
        <time>2016-12-21T10:06:53Z</time>
      </trkpt>
      <trkpt lat="49.25458" lon="1.83549">
        <ele>119</ele>
        <time>2016-12-21T10:06:55Z</time>
      </trkpt>
      <trkpt lat="49.25455" lon="1.83548">
        <ele>118</ele>
        <time>2016-12-21T10:06:57Z</time>
      </trkpt>
      <trkpt lat="49.25449" lon="1.83539">
        <ele>119</ele>
        <time>2016-12-21T10:07:01Z</time>
      </trkpt>
      <trkpt lat="49.25446" lon="1.8354">
        <ele>119</ele>
        <time>2016-12-21T10:07:04Z</time>
      </trkpt>
      <trkpt lat="49.25428" lon="1.83526">
        <ele>122</ele>
        <time>2016-12-21T10:07:20Z</time>
      </trkpt>
      <trkpt lat="49.25423" lon="1.83528">
        <ele>122</ele>
        <time>2016-12-21T10:07:24Z</time>
      </trkpt>
      <trkpt lat="49.25413" lon="1.83519">
        <ele>121</ele>
        <time>2016-12-21T10:07:33Z</time>
      </trkpt>
      <trkpt lat="49.25409" lon="1.83521">
        <ele>121</ele>
        <time>2016-12-21T10:07:37Z</time>
      </trkpt>
      <trkpt lat="49.25406" lon="1.83519">
        <ele>119</ele>
        <time>2016-12-21T10:07:40Z</time>
      </trkpt>
      <trkpt lat="49.25404" lon="1.83521">
        <ele>118</ele>
        <time>2016-12-21T10:07:43Z</time>
      </trkpt>
      <trkpt lat="49.25396" lon="1.83517">
        <ele>119</ele>
        <time>2016-12-21T10:07:49Z</time>
      </trkpt>
      <trkpt lat="49.25383" lon="1.83514">
        <ele>120</ele>
        <time>2016-12-21T10:07:59Z</time>
      </trkpt>
      <trkpt lat="49.25355" lon="1.83497">
        <ele>123</ele>
        <time>2016-12-21T10:08:21Z</time>
      </trkpt>
      <trkpt lat="49.25351" lon="1.83496">
        <ele>123</ele>
        <time>2016-12-21T10:08:24Z</time>
      </trkpt>
      <trkpt lat="49.25345" lon="1.8349">
        <ele>122</ele>
        <time>2016-12-21T10:08:29Z</time>
      </trkpt>
      <trkpt lat="49.25342" lon="1.83491">
        <ele>121</ele>
        <time>2016-12-21T10:08:31Z</time>
      </trkpt>
      <trkpt lat="49.25337" lon="1.83484">
        <ele>122</ele>
        <time>2016-12-21T10:08:38Z</time>
      </trkpt>
      <trkpt lat="49.25327" lon="1.83489">
        <ele>119</ele>
        <time>2016-12-21T10:08:47Z</time>
      </trkpt>
      <trkpt lat="49.25325" lon="1.83492">
        <ele>118</ele>
        <time>2016-12-21T10:08:49Z</time>
      </trkpt>
      <trkpt lat="49.25321" lon="1.83492">
        <ele>119</ele>
        <time>2016-12-21T10:08:51Z</time>
      </trkpt>
      <trkpt lat="49.25307" lon="1.83502">
        <ele>121</ele>
        <time>2016-12-21T10:09:03Z</time>
      </trkpt>
      <trkpt lat="49.25301" lon="1.83506">
        <ele>120</ele>
        <time>2016-12-21T10:09:08Z</time>
      </trkpt>
      <trkpt lat="49.253" lon="1.8351">
        <ele>120</ele>
        <time>2016-12-21T10:09:10Z</time>
      </trkpt>
      <trkpt lat="49.25296" lon="1.83508">
        <ele>120</ele>
        <time>2016-12-21T10:09:12Z</time>
      </trkpt>
      <trkpt lat="49.25287" lon="1.83514">
        <ele>120</ele>
        <time>2016-12-21T10:09:19Z</time>
      </trkpt>
      <trkpt lat="49.25284" lon="1.83514">
        <ele>120</ele>
        <time>2016-12-21T10:09:21Z</time>
      </trkpt>
      <trkpt lat="49.25281" lon="1.83518">
        <ele>120</ele>
        <time>2016-12-21T10:09:24Z</time>
      </trkpt>
      <trkpt lat="49.2525" lon="1.83545">
        <ele>121</ele>
        <time>2016-12-21T10:09:54Z</time>
      </trkpt>
      <trkpt lat="49.25227" lon="1.83559">
        <ele>121</ele>
        <time>2016-12-21T10:10:14Z</time>
      </trkpt>
      <trkpt lat="49.25225" lon="1.83563">
        <ele>121</ele>
        <time>2016-12-21T10:10:17Z</time>
      </trkpt>
      <trkpt lat="49.25209" lon="1.83573">
        <ele>121</ele>
        <time>2016-12-21T10:10:29Z</time>
      </trkpt>
      <trkpt lat="49.25201" lon="1.83573">
        <ele>118</ele>
        <time>2016-12-21T10:10:35Z</time>
      </trkpt>
      <trkpt lat="49.25194" lon="1.83576">
        <ele>120</ele>
        <time>2016-12-21T10:10:39Z</time>
      </trkpt>
      <trkpt lat="49.25191" lon="1.83579">
        <ele>120</ele>
        <time>2016-12-21T10:10:41Z</time>
      </trkpt>
      <trkpt lat="49.25188" lon="1.8358">
        <ele>120</ele>
        <time>2016-12-21T10:10:45Z</time>
      </trkpt>
      <trkpt lat="49.25184" lon="1.8358">
        <ele>120</ele>
        <time>2016-12-21T10:10:48Z</time>
      </trkpt>
      <trkpt lat="49.25182" lon="1.83583">
        <ele>120</ele>
        <time>2016-12-21T10:10:50Z</time>
      </trkpt>
      <trkpt lat="49.25178" lon="1.83582">
        <ele>120</ele>
        <time>2016-12-21T10:10:53Z</time>
      </trkpt>
      <trkpt lat="49.25174" lon="1.83588">
        <ele>119</ele>
        <time>2016-12-21T10:10:58Z</time>
      </trkpt>
      <trkpt lat="49.2517" lon="1.83589">
        <ele>118</ele>
        <time>2016-12-21T10:11:02Z</time>
      </trkpt>
      <trkpt lat="49.25165" lon="1.83592">
        <ele>118</ele>
        <time>2016-12-21T10:11:06Z</time>
      </trkpt>
      <trkpt lat="49.25162" lon="1.83591">
        <ele>119</ele>
        <time>2016-12-21T10:11:08Z</time>
      </trkpt>
      <trkpt lat="49.25159" lon="1.83593">
        <ele>119</ele>
        <time>2016-12-21T10:11:11Z</time>
      </trkpt>
      <trkpt lat="49.2514" lon="1.83593">
        <ele>118</ele>
        <time>2016-12-21T10:11:26Z</time>
      </trkpt>
      <trkpt lat="49.25109" lon="1.83594">
        <ele>113</ele>
        <time>2016-12-21T10:11:55Z</time>
      </trkpt>
      <trkpt lat="49.25104" lon="1.83596">
        <ele>114</ele>
        <time>2016-12-21T10:11:59Z</time>
      </trkpt>
      <trkpt lat="49.251" lon="1.83601">
        <ele>113</ele>
        <time>2016-12-21T10:12:03Z</time>
      </trkpt>
      <trkpt lat="49.25092" lon="1.83599">
        <ele>108</ele>
        <time>2016-12-21T10:12:11Z</time>
      </trkpt>
      <trkpt lat="49.25088" lon="1.83604">
        <ele>109</ele>
        <time>2016-12-21T10:12:18Z</time>
      </trkpt>
      <trkpt lat="49.25083" lon="1.83602">
        <ele>110</ele>
        <time>2016-12-21T10:12:20Z</time>
      </trkpt>
      <trkpt lat="49.25079" lon="1.83606">
        <ele>113</ele>
        <time>2016-12-21T10:12:23Z</time>
      </trkpt>
      <trkpt lat="49.25076" lon="1.83607">
        <ele>113</ele>
        <time>2016-12-21T10:12:25Z</time>
      </trkpt>
      <trkpt lat="49.25037" lon="1.83619">
        <ele>108</ele>
        <time>2016-12-21T10:12:57Z</time>
      </trkpt>
      <trkpt lat="49.25033" lon="1.83621">
        <ele>107</ele>
        <time>2016-12-21T10:13:02Z</time>
      </trkpt>
      <trkpt lat="49.25023" lon="1.83622">
        <ele>106</ele>
        <time>2016-12-21T10:13:10Z</time>
      </trkpt>
      <trkpt lat="49.2502" lon="1.83621">
        <ele>105</ele>
        <time>2016-12-21T10:13:14Z</time>
      </trkpt>
      <trkpt lat="49.25013" lon="1.83624">
        <ele>101</ele>
        <time>2016-12-21T10:13:19Z</time>
      </trkpt>
      <trkpt lat="49.25012" lon="1.83628">
        <ele>101</ele>
        <time>2016-12-21T10:13:22Z</time>
      </trkpt>
      <trkpt lat="49.25007" lon="1.83629">
        <ele>102</ele>
        <time>2016-12-21T10:13:26Z</time>
      </trkpt>
      <trkpt lat="49.25004" lon="1.83631">
        <ele>102</ele>
        <time>2016-12-21T10:13:30Z</time>
      </trkpt>
      <trkpt lat="49.24997" lon="1.8363">
        <ele>102</ele>
        <time>2016-12-21T10:13:35Z</time>
      </trkpt>
      <trkpt lat="49.24988" lon="1.83634">
        <ele>100</ele>
        <time>2016-12-21T10:13:44Z</time>
      </trkpt>
      <trkpt lat="49.24985" lon="1.83636">
        <ele>100</ele>
        <time>2016-12-21T10:13:47Z</time>
      </trkpt>
      <trkpt lat="49.24978" lon="1.83635">
        <ele>101</ele>
        <time>2016-12-21T10:13:51Z</time>
      </trkpt>
      <trkpt lat="49.24972" lon="1.83638">
        <ele>101</ele>
        <time>2016-12-21T10:13:57Z</time>
      </trkpt>
      <trkpt lat="49.2497" lon="1.83642">
        <ele>99</ele>
        <time>2016-12-21T10:14:02Z</time>
      </trkpt>
      <trkpt lat="49.24963" lon="1.83643">
        <ele>97</ele>
        <time>2016-12-21T10:14:07Z</time>
      </trkpt>
      <trkpt lat="49.24955" lon="1.8364">
        <ele>96</ele>
        <time>2016-12-21T10:14:12Z</time>
      </trkpt>
      <trkpt lat="49.24952" lon="1.83641">
        <ele>95</ele>
        <time>2016-12-21T10:14:14Z</time>
      </trkpt>
      <trkpt lat="49.24947" lon="1.83648">
        <ele>95</ele>
        <time>2016-12-21T10:14:20Z</time>
      </trkpt>
      <trkpt lat="49.24941" lon="1.83648">
        <ele>95</ele>
        <time>2016-12-21T10:14:25Z</time>
      </trkpt>
      <trkpt lat="49.24934" lon="1.83648">
        <ele>93</ele>
        <time>2016-12-21T10:14:31Z</time>
      </trkpt>
      <trkpt lat="49.24928" lon="1.83655">
        <ele>88</ele>
        <time>2016-12-21T10:14:39Z</time>
      </trkpt>
      <trkpt lat="49.24917" lon="1.83658">
        <ele>86</ele>
        <time>2016-12-21T10:14:47Z</time>
      </trkpt>
      <trkpt lat="49.24915" lon="1.83662">
        <ele>84</ele>
        <time>2016-12-21T10:14:52Z</time>
      </trkpt>
      <trkpt lat="49.24901" lon="1.83658">
        <ele>85</ele>
        <time>2016-12-21T10:15:01Z</time>
      </trkpt>
      <trkpt lat="49.24897" lon="1.83661">
        <ele>86</ele>
        <time>2016-12-21T10:15:04Z</time>
      </trkpt>
      <trkpt lat="49.24893" lon="1.8366">
        <ele>86</ele>
        <time>2016-12-21T10:15:07Z</time>
      </trkpt>
      <trkpt lat="49.24889" lon="1.83666">
        <ele>85</ele>
        <time>2016-12-21T10:15:15Z</time>
      </trkpt>
      <trkpt lat="49.24886" lon="1.83668">
        <ele>85</ele>
        <time>2016-12-21T10:15:18Z</time>
      </trkpt>
      <trkpt lat="49.24879" lon="1.83666">
        <ele>85</ele>
        <time>2016-12-21T10:15:20Z</time>
      </trkpt>
      <trkpt lat="49.24878" lon="1.8367">
        <ele>85</ele>
        <time>2016-12-21T10:15:25Z</time>
      </trkpt>
      <trkpt lat="49.24863" lon="1.83663">
        <ele>86</ele>
        <time>2016-12-21T10:15:31Z</time>
      </trkpt>
      <trkpt lat="49.24854" lon="1.83663">
        <ele>87</ele>
        <time>2016-12-21T10:15:36Z</time>
      </trkpt>
      <trkpt lat="49.24858" lon="1.83668">
        <ele>87</ele>
        <time>2016-12-21T10:15:37Z</time>
      </trkpt>
      <trkpt lat="49.24855" lon="1.83671">
        <ele>86</ele>
        <time>2016-12-21T10:15:40Z</time>
      </trkpt>
      <trkpt lat="49.24848" lon="1.83679">
        <ele>84</ele>
        <time>2016-12-21T10:15:50Z</time>
      </trkpt>
      <trkpt lat="49.24839" lon="1.83676">
        <ele>83</ele>
        <time>2016-12-21T10:15:54Z</time>
      </trkpt>
      <trkpt lat="49.24836" lon="1.83677">
        <ele>83</ele>
        <time>2016-12-21T10:15:58Z</time>
      </trkpt>
      <trkpt lat="49.24833" lon="1.8368">
        <ele>81</ele>
        <time>2016-12-21T10:16:09Z</time>
      </trkpt>
      <trkpt lat="49.24831" lon="1.83685">
        <ele>79</ele>
        <time>2016-12-21T10:16:14Z</time>
      </trkpt>
      <trkpt lat="49.24828" lon="1.83684">
        <ele>78</ele>
        <time>2016-12-21T10:16:19Z</time>
      </trkpt>
      <trkpt lat="49.24824" lon="1.83687">
        <ele>78</ele>
        <time>2016-12-21T10:16:22Z</time>
      </trkpt>
      <trkpt lat="49.24823" lon="1.83691">
        <ele>78</ele>
        <time>2016-12-21T10:16:27Z</time>
      </trkpt>
      <trkpt lat="49.2482" lon="1.83688">
        <ele>77</ele>
        <time>2016-12-21T10:16:29Z</time>
      </trkpt>
      <trkpt lat="49.24811" lon="1.83678">
        <ele>76</ele>
        <time>2016-12-21T10:16:36Z</time>
      </trkpt>
      <trkpt lat="49.24789" lon="1.83662">
        <ele>77</ele>
        <time>2016-12-21T10:17:02Z</time>
      </trkpt>
      <trkpt lat="49.24783" lon="1.83649">
        <ele>75</ele>
        <time>2016-12-21T10:17:11Z</time>
      </trkpt>
      <trkpt lat="49.24777" lon="1.83645">
        <ele>76</ele>
        <time>2016-12-21T10:17:16Z</time>
      </trkpt>
      <trkpt lat="49.24774" lon="1.83641">
        <ele>77</ele>
        <time>2016-12-21T10:17:22Z</time>
      </trkpt>
      <trkpt lat="49.24772" lon="1.83634">
        <ele>78</ele>
        <time>2016-12-21T10:17:24Z</time>
      </trkpt>
      <trkpt lat="49.24774" lon="1.8363">
        <ele>79</ele>
        <time>2016-12-21T10:17:30Z</time>
      </trkpt>
      <trkpt lat="49.24772" lon="1.83625">
        <ele>79</ele>
        <time>2016-12-21T10:17:32Z</time>
      </trkpt>
      <trkpt lat="49.24771" lon="1.83612">
        <ele>78</ele>
        <time>2016-12-21T10:17:36Z</time>
      </trkpt>
      <trkpt lat="49.24765" lon="1.83603">
        <ele>78</ele>
        <time>2016-12-21T10:17:43Z</time>
      </trkpt>
      <trkpt lat="49.24753" lon="1.83592">
        <ele>76</ele>
        <time>2016-12-21T10:17:53Z</time>
      </trkpt>
      <trkpt lat="49.24751" lon="1.83585">
        <ele>75</ele>
        <time>2016-12-21T10:17:56Z</time>
      </trkpt>
      <trkpt lat="49.24746" lon="1.83581">
        <ele>76</ele>
        <time>2016-12-21T10:18:01Z</time>
      </trkpt>
      <trkpt lat="49.24742" lon="1.83581">
        <ele>77</ele>
        <time>2016-12-21T10:18:04Z</time>
      </trkpt>
      <trkpt lat="49.24739" lon="1.83575">
        <ele>77</ele>
        <time>2016-12-21T10:18:06Z</time>
      </trkpt>
      <trkpt lat="49.24733" lon="1.83571">
        <ele>78</ele>
        <time>2016-12-21T10:18:10Z</time>
      </trkpt>
      <trkpt lat="49.2473" lon="1.83567">
        <ele>79</ele>
        <time>2016-12-21T10:18:14Z</time>
      </trkpt>
      <trkpt lat="49.24728" lon="1.83561">
        <ele>79</ele>
        <time>2016-12-21T10:18:18Z</time>
      </trkpt>
      <trkpt lat="49.24723" lon="1.83562">
        <ele>79</ele>
        <time>2016-12-21T10:18:21Z</time>
      </trkpt>
      <trkpt lat="49.24726" lon="1.83551">
        <ele>77</ele>
        <time>2016-12-21T10:18:26Z</time>
      </trkpt>
      <trkpt lat="49.24726" lon="1.8354">
        <ele>74</ele>
        <time>2016-12-21T10:18:33Z</time>
      </trkpt>
      <trkpt lat="49.24724" lon="1.83545">
        <ele>76</ele>
        <time>2016-12-21T10:19:05Z</time>
      </trkpt>
      <trkpt lat="49.24723" lon="1.8354">
        <ele>73</ele>
        <time>2016-12-21T10:19:10Z</time>
      </trkpt>
      <trkpt lat="49.24722" lon="1.83531">
        <ele>71</ele>
        <time>2016-12-21T10:19:14Z</time>
      </trkpt>
      <trkpt lat="49.2472" lon="1.83507">
        <ele>67</ele>
        <time>2016-12-21T10:19:30Z</time>
      </trkpt>
      <trkpt lat="49.24732" lon="1.83499">
        <ele>76</ele>
        <time>2016-12-21T10:19:32Z</time>
      </trkpt>
      <trkpt lat="49.24729" lon="1.83498">
        <ele>78</ele>
        <time>2016-12-21T10:19:37Z</time>
      </trkpt>
      <trkpt lat="49.24731" lon="1.83494">
        <ele>78</ele>
        <time>2016-12-21T10:19:41Z</time>
      </trkpt>
      <trkpt lat="49.24732" lon="1.83489">
        <ele>79</ele>
        <time>2016-12-21T10:19:43Z</time>
      </trkpt>
      <trkpt lat="49.24731" lon="1.83472">
        <ele>77</ele>
        <time>2016-12-21T10:19:51Z</time>
      </trkpt>
      <trkpt lat="49.24733" lon="1.8346">
        <ele>76</ele>
        <time>2016-12-21T10:20:01Z</time>
      </trkpt>
      <trkpt lat="49.24735" lon="1.83442">
        <ele>76</ele>
        <time>2016-12-21T10:20:12Z</time>
      </trkpt>
      <trkpt lat="49.24744" lon="1.83405">
        <ele>73</ele>
        <time>2016-12-21T10:20:36Z</time>
      </trkpt>
      <trkpt lat="49.24747" lon="1.83403">
        <ele>73</ele>
        <time>2016-12-21T10:20:38Z</time>
      </trkpt>
      <trkpt lat="49.24748" lon="1.83398">
        <ele>73</ele>
        <time>2016-12-21T10:20:42Z</time>
      </trkpt>
      <trkpt lat="49.24754" lon="1.83392">
        <ele>73</ele>
        <time>2016-12-21T10:20:47Z</time>
      </trkpt>
      <trkpt lat="49.24755" lon="1.83387">
        <ele>73</ele>
        <time>2016-12-21T10:20:51Z</time>
      </trkpt>
      <trkpt lat="49.24754" lon="1.83383">
        <ele>70</ele>
        <time>2016-12-21T10:20:54Z</time>
      </trkpt>
      <trkpt lat="49.24757" lon="1.83378">
        <ele>69</ele>
        <time>2016-12-21T10:20:56Z</time>
      </trkpt>
      <trkpt lat="49.24759" lon="1.83377">
        <ele>69</ele>
        <time>2016-12-21T10:20:57Z</time>
      </trkpt>
      <trkpt lat="49.24761" lon="1.83373">
        <ele>69</ele>
        <time>2016-12-21T10:20:59Z</time>
      </trkpt>
      <trkpt lat="49.24762" lon="1.83361">
        <ele>69</ele>
        <time>2016-12-21T10:21:06Z</time>
      </trkpt>
      <trkpt lat="49.24762" lon="1.83355">
        <ele>69</ele>
        <time>2016-12-21T10:21:10Z</time>
      </trkpt>
      <trkpt lat="49.24767" lon="1.83352">
        <ele>68</ele>
        <time>2016-12-21T10:21:11Z</time>
      </trkpt>
      <trkpt lat="49.2477" lon="1.83351">
        <ele>71</ele>
        <time>2016-12-21T10:21:14Z</time>
      </trkpt>
      <trkpt lat="49.24769" lon="1.83347">
        <ele>71</ele>
        <time>2016-12-21T10:21:15Z</time>
      </trkpt>
      <trkpt lat="49.2477" lon="1.83341">
        <ele>70</ele>
        <time>2016-12-21T10:21:19Z</time>
      </trkpt>
      <trkpt lat="49.24769" lon="1.83336">
        <ele>67</ele>
        <time>2016-12-21T10:21:22Z</time>
      </trkpt>
      <trkpt lat="49.24774" lon="1.83323">
        <ele>65</ele>
        <time>2016-12-21T10:21:31Z</time>
      </trkpt>
      <trkpt lat="49.2477" lon="1.83323">
        <ele>66</ele>
        <time>2016-12-21T10:21:32Z</time>
      </trkpt>
      <trkpt lat="49.24772" lon="1.83308">
        <ele>66</ele>
        <time>2016-12-21T10:21:36Z</time>
      </trkpt>
      <trkpt lat="49.24771" lon="1.83299">
        <ele>68</ele>
        <time>2016-12-21T10:21:43Z</time>
      </trkpt>
      <trkpt lat="49.2477" lon="1.83293">
        <ele>70</ele>
        <time>2016-12-21T10:21:45Z</time>
      </trkpt>
      <trkpt lat="49.24767" lon="1.83282">
        <ele>75</ele>
        <time>2016-12-21T10:21:51Z</time>
      </trkpt>
      <trkpt lat="49.24768" lon="1.83277">
        <ele>75</ele>
        <time>2016-12-21T10:21:53Z</time>
      </trkpt>
      <trkpt lat="49.24766" lon="1.83274">
        <ele>73</ele>
        <time>2016-12-21T10:21:56Z</time>
      </trkpt>
      <trkpt lat="49.24768" lon="1.83269">
        <ele>72</ele>
        <time>2016-12-21T10:22:03Z</time>
      </trkpt>
      <trkpt lat="49.24768" lon="1.83261">
        <ele>72</ele>
        <time>2016-12-21T10:22:09Z</time>
      </trkpt>
      <trkpt lat="49.24764" lon="1.83254">
        <ele>73</ele>
        <time>2016-12-21T10:22:15Z</time>
      </trkpt>
      <trkpt lat="49.24765" lon="1.83247">
        <ele>74</ele>
        <time>2016-12-21T10:22:19Z</time>
      </trkpt>
      <trkpt lat="49.24767" lon="1.83242">
        <ele>77</ele>
        <time>2016-12-21T10:22:22Z</time>
      </trkpt>
      <trkpt lat="49.24769" lon="1.83238">
        <ele>76</ele>
        <time>2016-12-21T10:22:37Z</time>
      </trkpt>
      <trkpt lat="49.24768" lon="1.83224">
        <ele>75</ele>
        <time>2016-12-21T10:22:56Z</time>
      </trkpt>
      <trkpt lat="49.24767" lon="1.83218">
        <ele>76</ele>
        <time>2016-12-21T10:23:01Z</time>
      </trkpt>
      <trkpt lat="49.24765" lon="1.83211">
        <ele>79</ele>
        <time>2016-12-21T10:23:02Z</time>
      </trkpt>
      <trkpt lat="49.24768" lon="1.83206">
        <ele>80</ele>
        <time>2016-12-21T10:23:05Z</time>
      </trkpt>
      <trkpt lat="49.24769" lon="1.83181">
        <ele>77</ele>
        <time>2016-12-21T10:23:20Z</time>
      </trkpt>
      <trkpt lat="49.24768" lon="1.83174">
        <ele>76</ele>
        <time>2016-12-21T10:23:23Z</time>
      </trkpt>
      <trkpt lat="49.24763" lon="1.83164">
        <ele>76</ele>
        <time>2016-12-21T10:23:27Z</time>
      </trkpt>
      <trkpt lat="49.24757" lon="1.83132">
        <ele>79</ele>
        <time>2016-12-21T10:23:46Z</time>
      </trkpt>
      <trkpt lat="49.2476" lon="1.83128">
        <ele>78</ele>
        <time>2016-12-21T10:23:49Z</time>
      </trkpt>
      <trkpt lat="49.2476" lon="1.83122">
        <ele>77</ele>
        <time>2016-12-21T10:23:52Z</time>
      </trkpt>
      <trkpt lat="49.24758" lon="1.83119">
        <ele>77</ele>
        <time>2016-12-21T10:23:54Z</time>
      </trkpt>
      <trkpt lat="49.24753" lon="1.83086">
        <ele>77</ele>
        <time>2016-12-21T10:24:12Z</time>
      </trkpt>
      <trkpt lat="49.24758" lon="1.83087">
        <ele>79</ele>
        <time>2016-12-21T10:24:15Z</time>
      </trkpt>
      <trkpt lat="49.24757" lon="1.83082">
        <ele>80</ele>
        <time>2016-12-21T10:24:18Z</time>
      </trkpt>
      <trkpt lat="49.24754" lon="1.83073">
        <ele>79</ele>
        <time>2016-12-21T10:24:24Z</time>
      </trkpt>
      <trkpt lat="49.24747" lon="1.83072">
        <ele>78</ele>
        <time>2016-12-21T10:24:27Z</time>
      </trkpt>
      <trkpt lat="49.24745" lon="1.83063">
        <ele>72</ele>
        <time>2016-12-21T10:24:35Z</time>
      </trkpt>
      <trkpt lat="49.24745" lon="1.83051">
        <ele>69</ele>
        <time>2016-12-21T10:24:42Z</time>
      </trkpt>
      <trkpt lat="49.24741" lon="1.83048">
        <ele>70</ele>
        <time>2016-12-21T10:24:50Z</time>
      </trkpt>
      <trkpt lat="49.24724" lon="1.83049">
        <ele>69</ele>
        <time>2016-12-21T10:25:06Z</time>
      </trkpt>
      <trkpt lat="49.24725" lon="1.83058">
        <ele>68</ele>
        <time>2016-12-21T10:25:09Z</time>
      </trkpt>
      <trkpt lat="49.24719" lon="1.83061">
        <ele>69</ele>
        <time>2016-12-21T10:25:15Z</time>
      </trkpt>
      <trkpt lat="49.24712" lon="1.83056">
        <ele>70</ele>
        <time>2016-12-21T10:25:18Z</time>
      </trkpt>
      <trkpt lat="49.24706" lon="1.83054">
        <ele>70</ele>
        <time>2016-12-21T10:25:24Z</time>
      </trkpt>
      <trkpt lat="49.24701" lon="1.83059">
        <ele>70</ele>
        <time>2016-12-21T10:25:30Z</time>
      </trkpt>
      <trkpt lat="49.24694" lon="1.83063">
        <ele>67</ele>
        <time>2016-12-21T10:25:40Z</time>
      </trkpt>
      <trkpt lat="49.2469" lon="1.83062">
        <ele>66</ele>
        <time>2016-12-21T10:25:43Z</time>
      </trkpt>
      <trkpt lat="49.24686" lon="1.83062">
        <ele>65</ele>
        <time>2016-12-21T10:25:46Z</time>
      </trkpt>
      <trkpt lat="49.24683" lon="1.83057">
        <ele>64</ele>
        <time>2016-12-21T10:25:48Z</time>
      </trkpt>
      <trkpt lat="49.2468" lon="1.83063">
        <ele>65</ele>
        <time>2016-12-21T10:25:53Z</time>
      </trkpt>
      <trkpt lat="49.24676" lon="1.8306">
        <ele>65</ele>
        <time>2016-12-21T10:25:57Z</time>
      </trkpt>
      <trkpt lat="49.24671" lon="1.83059">
        <ele>67</ele>
        <time>2016-12-21T10:26:01Z</time>
      </trkpt>
      <trkpt lat="49.24668" lon="1.83055">
        <ele>72</ele>
        <time>2016-12-21T10:26:04Z</time>
      </trkpt>
      <trkpt lat="49.24657" lon="1.83048">
        <ele>72</ele>
        <time>2016-12-21T10:26:21Z</time>
      </trkpt>
      <trkpt lat="49.24655" lon="1.83048">
        <ele>70</ele>
        <time>2016-12-21T10:26:54Z</time>
      </trkpt>
      <trkpt lat="49.24652" lon="1.83045">
        <ele>69</ele>
        <time>2016-12-21T10:26:57Z</time>
      </trkpt>
      <trkpt lat="49.24633" lon="1.83035">
        <ele>68</ele>
        <time>2016-12-21T10:27:15Z</time>
      </trkpt>
      <trkpt lat="49.24629" lon="1.83042">
        <ele>68</ele>
        <time>2016-12-21T10:27:18Z</time>
      </trkpt>
      <trkpt lat="49.24625" lon="1.83043">
        <ele>69</ele>
        <time>2016-12-21T10:27:20Z</time>
      </trkpt>
      <trkpt lat="49.24622" lon="1.83056">
        <ele>71</ele>
        <time>2016-12-21T10:27:29Z</time>
      </trkpt>
      <trkpt lat="49.24626" lon="1.83059">
        <ele>72</ele>
        <time>2016-12-21T10:27:35Z</time>
      </trkpt>
      <trkpt lat="49.24626" lon="1.83066">
        <ele>74</ele>
        <time>2016-12-21T10:27:38Z</time>
      </trkpt>
      <trkpt lat="49.24624" lon="1.83071">
        <ele>75</ele>
        <time>2016-12-21T10:27:41Z</time>
      </trkpt>
      <trkpt lat="49.24628" lon="1.83076">
        <ele>75</ele>
        <time>2016-12-21T10:27:44Z</time>
      </trkpt>
      <trkpt lat="49.24623" lon="1.83092">
        <ele>76</ele>
        <time>2016-12-21T10:28:00Z</time>
      </trkpt>
      <trkpt lat="49.24618" lon="1.83094">
        <ele>75</ele>
        <time>2016-12-21T10:28:05Z</time>
      </trkpt>
      <trkpt lat="49.24616" lon="1.83107">
        <ele>76</ele>
        <time>2016-12-21T10:28:11Z</time>
      </trkpt>
      <trkpt lat="49.24616" lon="1.83121">
        <ele>77</ele>
        <time>2016-12-21T10:28:21Z</time>
      </trkpt>
      <trkpt lat="49.24619" lon="1.83135">
        <ele>79</ele>
        <time>2016-12-21T10:28:28Z</time>
      </trkpt>
      <trkpt lat="49.24617" lon="1.8314">
        <ele>79</ele>
        <time>2016-12-21T10:28:30Z</time>
      </trkpt>
      <trkpt lat="49.24619" lon="1.8315">
        <ele>77</ele>
        <time>2016-12-21T10:28:37Z</time>
      </trkpt>
      <trkpt lat="49.24619" lon="1.83161">
        <ele>78</ele>
        <time>2016-12-21T10:28:42Z</time>
      </trkpt>
      <trkpt lat="49.24623" lon="1.83161">
        <ele>78</ele>
        <time>2016-12-21T10:28:44Z</time>
      </trkpt>
      <trkpt lat="49.24624" lon="1.83167">
        <ele>76</ele>
        <time>2016-12-21T10:28:49Z</time>
      </trkpt>
      <trkpt lat="49.24625" lon="1.8318">
        <ele>74</ele>
        <time>2016-12-21T10:28:55Z</time>
      </trkpt>
      <trkpt lat="49.24629" lon="1.8318">
        <ele>76</ele>
        <time>2016-12-21T10:29:09Z</time>
      </trkpt>
      <trkpt lat="49.24628" lon="1.83189">
        <ele>76</ele>
        <time>2016-12-21T10:29:15Z</time>
      </trkpt>
      <trkpt lat="49.24627" lon="1.83195">
        <ele>77</ele>
        <time>2016-12-21T10:29:18Z</time>
      </trkpt>
      <trkpt lat="49.24629" lon="1.83205">
        <ele>80</ele>
        <time>2016-12-21T10:29:25Z</time>
      </trkpt>
      <trkpt lat="49.24628" lon="1.83217">
        <ele>80</ele>
        <time>2016-12-21T10:29:37Z</time>
      </trkpt>
      <trkpt lat="49.2463" lon="1.83221">
        <ele>79</ele>
        <time>2016-12-21T10:29:39Z</time>
      </trkpt>
      <trkpt lat="49.24629" lon="1.83226">
        <ele>79</ele>
        <time>2016-12-21T10:29:41Z</time>
      </trkpt>
      <trkpt lat="49.24629" lon="1.83235">
        <ele>80</ele>
        <time>2016-12-21T10:29:46Z</time>
      </trkpt>
      <trkpt lat="49.24631" lon="1.8324">
        <ele>80</ele>
        <time>2016-12-21T10:29:49Z</time>
      </trkpt>
      <trkpt lat="49.24629" lon="1.83251">
        <ele>79</ele>
        <time>2016-12-21T10:29:58Z</time>
      </trkpt>
      <trkpt lat="49.24627" lon="1.83255">
        <ele>79</ele>
        <time>2016-12-21T10:30:00Z</time>
      </trkpt>
      <trkpt lat="49.24628" lon="1.83262">
        <ele>79</ele>
        <time>2016-12-21T10:30:06Z</time>
      </trkpt>
      <trkpt lat="49.24624" lon="1.83304">
        <ele>79</ele>
        <time>2016-12-21T10:30:29Z</time>
      </trkpt>
      <trkpt lat="49.24611" lon="1.83331">
        <ele>79</ele>
        <time>2016-12-21T10:30:45Z</time>
      </trkpt>
      <trkpt lat="49.24608" lon="1.83336">
        <ele>78</ele>
        <time>2016-12-21T10:30:48Z</time>
      </trkpt>
      <trkpt lat="49.24608" lon="1.83342">
        <ele>77</ele>
        <time>2016-12-21T10:30:52Z</time>
      </trkpt>
      <trkpt lat="49.24613" lon="1.83345">
        <ele>76</ele>
        <time>2016-12-21T10:30:55Z</time>
      </trkpt>
      <trkpt lat="49.24609" lon="1.8335">
        <ele>77</ele>
        <time>2016-12-21T10:30:58Z</time>
      </trkpt>
      <trkpt lat="49.2461" lon="1.83355">
        <ele>78</ele>
        <time>2016-12-21T10:31:01Z</time>
      </trkpt>
      <trkpt lat="49.24601" lon="1.83374">
        <ele>76</ele>
        <time>2016-12-21T10:31:13Z</time>
      </trkpt>
      <trkpt lat="49.24596" lon="1.83377">
        <ele>77</ele>
        <time>2016-12-21T10:31:15Z</time>
      </trkpt>
      <trkpt lat="49.24594" lon="1.83382">
        <ele>77</ele>
        <time>2016-12-21T10:31:17Z</time>
      </trkpt>
      <trkpt lat="49.24593" lon="1.83388">
        <ele>77</ele>
        <time>2016-12-21T10:31:21Z</time>
      </trkpt>
      <trkpt lat="49.24591" lon="1.83391">
        <ele>78</ele>
        <time>2016-12-21T10:31:24Z</time>
      </trkpt>
      <trkpt lat="49.24591" lon="1.83396">
        <ele>78</ele>
        <time>2016-12-21T10:31:26Z</time>
      </trkpt>
      <trkpt lat="49.24585" lon="1.8341">
        <ele>80</ele>
        <time>2016-12-21T10:31:35Z</time>
      </trkpt>
      <trkpt lat="49.24582" lon="1.8341">
        <ele>79</ele>
        <time>2016-12-21T10:31:42Z</time>
      </trkpt>
      <trkpt lat="49.2458" lon="1.83408">
        <ele>79</ele>
        <time>2016-12-21T10:31:44Z</time>
      </trkpt>
      <trkpt lat="49.24577" lon="1.83408">
        <ele>79</ele>
        <time>2016-12-21T10:31:48Z</time>
      </trkpt>
      <trkpt lat="49.24574" lon="1.83409">
        <ele>81</ele>
        <time>2016-12-21T10:31:52Z</time>
      </trkpt>
      <trkpt lat="49.24569" lon="1.83405">
        <ele>80</ele>
        <time>2016-12-21T10:31:56Z</time>
      </trkpt>
      <trkpt lat="49.24566" lon="1.83406">
        <ele>80</ele>
        <time>2016-12-21T10:31:59Z</time>
      </trkpt>
      <trkpt lat="49.2454" lon="1.83401">
        <ele>85</ele>
        <time>2016-12-21T10:32:33Z</time>
      </trkpt>
      <trkpt lat="49.24535" lon="1.83398">
        <ele>85</ele>
        <time>2016-12-21T10:32:39Z</time>
      </trkpt>
      <trkpt lat="49.24533" lon="1.83395">
        <ele>86</ele>
        <time>2016-12-21T10:32:43Z</time>
      </trkpt>
      <trkpt lat="49.24512" lon="1.83377">
        <ele>88</ele>
        <time>2016-12-21T10:33:09Z</time>
      </trkpt>
      <trkpt lat="49.24508" lon="1.83377">
        <ele>88</ele>
        <time>2016-12-21T10:33:13Z</time>
      </trkpt>
      <trkpt lat="49.24498" lon="1.83373">
        <ele>89</ele>
        <time>2016-12-21T10:33:25Z</time>
      </trkpt>
      <trkpt lat="49.24489" lon="1.83363">
        <ele>90</ele>
        <time>2016-12-21T10:33:34Z</time>
      </trkpt>
      <trkpt lat="49.24484" lon="1.83363">
        <ele>91</ele>
        <time>2016-12-21T10:33:39Z</time>
      </trkpt>
      <trkpt lat="49.24479" lon="1.83365">
        <ele>93</ele>
        <time>2016-12-21T10:33:44Z</time>
      </trkpt>
      <trkpt lat="49.24477" lon="1.8336">
        <ele>93</ele>
        <time>2016-12-21T10:33:48Z</time>
      </trkpt>
      <trkpt lat="49.24475" lon="1.83354">
        <ele>93</ele>
        <time>2016-12-21T10:33:52Z</time>
      </trkpt>
      <trkpt lat="49.24469" lon="1.83351">
        <ele>93</ele>
        <time>2016-12-21T10:33:56Z</time>
      </trkpt>
      <trkpt lat="49.24466" lon="1.83353">
        <ele>94</ele>
        <time>2016-12-21T10:34:02Z</time>
      </trkpt>
      <trkpt lat="49.24461" lon="1.83349">
        <ele>95</ele>
        <time>2016-12-21T10:34:08Z</time>
      </trkpt>
      <trkpt lat="49.24457" lon="1.83348">
        <ele>96</ele>
        <time>2016-12-21T10:34:11Z</time>
      </trkpt>
      <trkpt lat="49.24447" lon="1.83339">
        <ele>97</ele>
        <time>2016-12-21T10:34:23Z</time>
      </trkpt>
      <trkpt lat="49.2443" lon="1.83332">
        <ele>99</ele>
        <time>2016-12-21T10:34:40Z</time>
      </trkpt>
      <trkpt lat="49.24426" lon="1.83326">
        <ele>102</ele>
        <time>2016-12-21T10:34:42Z</time>
      </trkpt>
      <trkpt lat="49.24414" lon="1.8332">
        <ele>105</ele>
        <time>2016-12-21T10:34:58Z</time>
      </trkpt>
      <trkpt lat="49.24409" lon="1.83323">
        <ele>106</ele>
        <time>2016-12-21T10:35:02Z</time>
      </trkpt>
      <trkpt lat="49.24404" lon="1.83321">
        <ele>104</ele>
        <time>2016-12-21T10:35:07Z</time>
      </trkpt>
      <trkpt lat="49.244" lon="1.83322">
        <ele>101</ele>
        <time>2016-12-21T10:35:11Z</time>
      </trkpt>
      <trkpt lat="49.24397" lon="1.83321">
        <ele>101</ele>
        <time>2016-12-21T10:35:13Z</time>
      </trkpt>
      <trkpt lat="49.24395" lon="1.83316">
        <ele>99</ele>
        <time>2016-12-21T10:35:17Z</time>
      </trkpt>
      <trkpt lat="49.24385" lon="1.83312">
        <ele>103</ele>
        <time>2016-12-21T10:35:30Z</time>
      </trkpt>
      <trkpt lat="49.24382" lon="1.83312">
        <ele>104</ele>
        <time>2016-12-21T10:35:32Z</time>
      </trkpt>
      <trkpt lat="49.24379" lon="1.83316">
        <ele>102</ele>
        <time>2016-12-21T10:35:36Z</time>
      </trkpt>
      <trkpt lat="49.24377" lon="1.8332">
        <ele>102</ele>
        <time>2016-12-21T10:35:39Z</time>
      </trkpt>
      <trkpt lat="49.24375" lon="1.83324">
        <ele>103</ele>
        <time>2016-12-21T10:35:42Z</time>
      </trkpt>
      <trkpt lat="49.24375" lon="1.83338">
        <ele>104</ele>
        <time>2016-12-21T10:36:12Z</time>
      </trkpt>
      <trkpt lat="49.24373" lon="1.83343">
        <ele>103</ele>
        <time>2016-12-21T10:36:15Z</time>
      </trkpt>
      <trkpt lat="49.24372" lon="1.83363">
        <ele>102</ele>
        <time>2016-12-21T10:36:32Z</time>
      </trkpt>
      <trkpt lat="49.24373" lon="1.83368">
        <ele>102</ele>
        <time>2016-12-21T10:36:37Z</time>
      </trkpt>
      <trkpt lat="49.2437" lon="1.83374">
        <ele>100</ele>
        <time>2016-12-21T10:36:50Z</time>
      </trkpt>
      <trkpt lat="49.24369" lon="1.83378">
        <ele>101</ele>
        <time>2016-12-21T10:38:37Z</time>
      </trkpt>
    </trkseg>
  </trk>
</gpx>